Time,TemperatureF,DewpointF,PressureIn,WindDirection,WindDirectionDegrees,WindSpeedMPH,WindSpeedGustMPH,Humidity,HourlyPrecipIn,Conditions,Clouds,dailyrainin,SoftwareType,DateUTC
2013-08-29 00:00:00,73.7,56.0,29.79,NNW,336,0.0,2.0,54,0.00,,,0.00,Wunderground v.1.15,2013-08-29 07:00:00,
2013-08-29 00:01:00,73.7,56.0,29.79,NNW,336,1.0,1.0,54,0.00,,,0.00,Wunderground v.1.15,2013-08-29 07:01:00,
2013-08-29 00:02:00,73.8,56.1,29.79,NNW,336,0.0,1.0,54,0.00,,,0.00,Wunderground v.1.15,2013-08-29 07:02:00,
2013-08-29 00:03:00,73.8,56.6,29.79,NNW,336,0.0,1.0,55,0.00,,,0.00,Wunderground v.1.15,2013-08-29 07:03:00,
2013-08-29 00:06:00,73.6,56.4,29.79,NNW,336,0.0,2.0,55,0.00,,,0.00,Wunderground v.1.15,2013-08-29 07:06:00,
2013-08-29 00:07:00,73.5,55.8,29.79,NNW,336,0.0,2.0,54,0.00,,,0.00,Wunderground v.1.15,2013-08-29 07:07:00,
2013-08-29 00:08:00,73.5,55.8,29.79,NNW,336,0.0,2.0,54,0.00,,,0.00,Wunderground v.1.15,2013-08-29 07:08:00,
2013-08-29 00:11:00,73.5,56.8,29.79,NNW,336,0.0,0.0,56,0.00,,,0.00,Wunderground v.1.15,2013-08-29 07:11:00,
2013-08-29 00:12:00,73.5,55.3,29.79,NNW,336,0.0,0.0,53,0.00,,,0.00,Wunderground v.1.15,2013-08-29 07:12:00,
2013-08-29 00:13:00,73.5,55.3,29.79,NNW,336,0.0,0.0,53,0.00,,,0.00,Wunderground v.1.15,2013-08-29 07:13:00,
2013-08-29 00:16:00,73.7,56.0,29.79,NNW,336,0.0,1.0,54,0.00,,,0.00,Wunderground v.1.15,2013-08-29 07:16:00,
2013-08-29 00:17:00,73.7,56.5,29.79,NNW,336,0.0,1.0,55,0.00,,,0.00,Wunderground v.1.15,2013-08-29 07:17:00,
2013-08-29 00:18:00,73.8,57.1,29.79,NNW,336,0.0,1.0,56,0.00,,,0.00,Wunderground v.1.15,2013-08-29 07:18:00,
2013-08-29 00:21:00,73.8,56.1,29.79,NNW,336,0.0,0.0,54,0.00,,,0.00,Wunderground v.1.15,2013-08-29 07:21:00,
2013-08-29 00:22:00,73.7,56.0,29.79,NNW,336,0.0,0.0,54,0.00,,,0.00,Wunderground v.1.15,2013-08-29 07:22:00,
2013-08-29 00:23:00,73.7,56.0,29.79,NNW,336,0.0,1.0,54,0.00,,,0.00,Wunderground v.1.15,2013-08-29 07:23:00,
2013-08-29 00:24:00,73.7,55.5,29.79,NNW,336,0.0,1.0,53,0.00,,,0.00,Wunderground v.1.15,2013-08-29 07:24:00,
2013-08-29 00:27:00,73.8,57.6,29.79,NNW,336,0.0,1.0,57,0.00,,,0.00,Wunderground v.1.15,2013-08-29 07:27:00,
2013-08-29 00:28:00,73.8,57.6,29.79,NNW,336,0.0,1.0,57,0.00,,,0.00,Wunderground v.1.15,2013-08-29 07:28:00,
2013-08-29 00:29:00,73.8,57.6,29.79,NNW,336,0.0,1.0,57,0.00,,,0.00,Wunderground v.1.15,2013-08-29 07:29:00,
2013-08-29 00:30:00,73.7,57.5,29.79,NNW,336,0.0,0.0,57,0.00,,,0.00,Wunderground v.1.15,2013-08-29 07:30:00,
2013-08-29 00:32:00,73.6,55.9,29.79,NNW,336,0.0,0.0,54,0.00,,,0.00,Wunderground v.1.15,2013-08-29 07:32:00,
2013-08-29 00:33:00,73.7,58.9,29.79,NNW,336,0.0,1.0,60,0.00,,,0.00,Wunderground v.1.15,2013-08-29 07:33:00,
2013-08-29 00:34:00,73.7,58.9,29.79,NNW,336,0.0,1.0,60,0.00,,,0.00,Wunderground v.1.15,2013-08-29 07:34:00,
2013-08-29 00:36:00,73.9,60.5,29.79,NNW,336,0.0,1.0,63,0.00,,,0.00,Wunderground v.1.15,2013-08-29 07:36:00,
2013-08-29 00:37:00,73.9,60.1,29.79,NNW,336,0.0,1.0,62,0.00,,,0.00,Wunderground v.1.15,2013-08-29 07:37:00,
2013-08-29 00:38:00,73.9,58.7,29.79,NNW,336,0.0,1.0,59,0.00,,,0.00,Wunderground v.1.15,2013-08-29 07:38:00,
2013-08-29 00:39:00,73.9,58.2,29.79,NNW,336,0.0,1.0,58,0.00,,,0.00,Wunderground v.1.15,2013-08-29 07:39:00,
2013-08-29 00:41:00,73.8,57.1,29.79,NNW,336,1.0,1.0,56,0.00,,,0.00,Wunderground v.1.15,2013-08-29 07:41:00,
2013-08-29 00:42:00,73.8,56.6,29.79,NNW,336,0.0,1.0,55,0.00,,,0.00,Wunderground v.1.15,2013-08-29 07:42:00,
2013-08-29 00:43:00,73.9,57.7,29.79,NNW,336,0.0,1.0,57,0.00,,,0.00,Wunderground v.1.15,2013-08-29 07:43:00,
2013-08-29 00:44:00,73.9,58.7,29.79,NNW,336,0.0,1.0,59,0.00,,,0.00,Wunderground v.1.15,2013-08-29 07:44:00,
2013-08-29 00:45:00,73.8,56.6,29.79,NNW,336,0.0,1.0,55,0.00,,,0.00,Wunderground v.1.15,2013-08-29 07:45:00,
2013-08-29 00:46:00,73.8,56.6,29.79,NNW,336,0.0,1.0,55,0.00,,,0.00,Wunderground v.1.15,2013-08-29 07:46:00,
2013-08-29 00:47:00,73.9,56.7,29.79,NNW,336,3.0,3.0,55,0.00,,,0.00,Wunderground v.1.15,2013-08-29 07:47:00,
2013-08-29 00:48:00,74.0,58.3,29.79,NNW,336,2.0,3.0,58,0.00,,,0.00,Wunderground v.1.15,2013-08-29 07:48:00,
2013-08-29 00:49:00,74.0,59.2,29.79,NNW,336,2.0,3.0,60,0.00,,,0.00,Wunderground v.1.15,2013-08-29 07:49:00,
2013-08-29 00:50:00,74.2,60.8,29.79,NNW,336,1.0,3.0,63,0.00,,,0.00,Wunderground v.1.15,2013-08-29 07:50:00,
2013-08-29 00:52:00,74.0,57.8,29.79,NNW,336,0.0,2.0,57,0.00,,,0.00,Wunderground v.1.15,2013-08-29 07:52:00,
2013-08-29 00:53:00,74.0,57.3,29.79,NNW,336,0.0,2.0,56,0.00,,,0.00,Wunderground v.1.15,2013-08-29 07:53:00,
2013-08-29 00:54:00,73.9,56.7,29.79,NNW,336,0.0,2.0,55,0.00,,,0.00,Wunderground v.1.15,2013-08-29 07:54:00,
2013-08-29 00:55:00,73.8,56.6,29.79,NNW,336,0.0,2.0,55,0.00,,,0.00,Wunderground v.1.15,2013-08-29 07:55:00,
2013-08-29 00:57:00,73.7,55.5,29.79,NNW,336,1.0,2.0,53,0.00,,,0.00,Wunderground v.1.15,2013-08-29 07:57:00,
2013-08-29 00:58:00,73.7,57.0,29.79,NNW,336,1.0,2.0,56,0.00,,,0.00,Wunderground v.1.15,2013-08-29 07:58:00,
2013-08-29 00:59:00,73.8,57.6,29.79,NNW,336,0.0,2.0,57,0.00,,,0.00,Wunderground v.1.15,2013-08-29 07:59:00,
2013-08-29 01:00:00,73.8,56.6,29.79,NNW,336,0.0,1.0,55,0.00,,,0.00,Wunderground v.1.15,2013-08-29 08:00:00,
2013-08-29 01:01:00,73.8,57.1,29.79,NNW,336,0.0,1.0,56,0.00,,,0.00,Wunderground v.1.15,2013-08-29 08:01:00,
2013-08-29 01:02:00,73.8,56.1,29.79,NNW,336,0.0,1.0,54,0.00,,,0.00,Wunderground v.1.15,2013-08-29 08:02:00,
2013-08-29 01:03:00,73.8,55.6,29.79,NNW,336,0.0,1.0,53,0.00,,,0.00,Wunderground v.1.15,2013-08-29 08:03:00,
2013-08-29 01:04:00,73.8,55.6,29.79,NNW,336,0.0,1.0,53,0.00,,,0.00,Wunderground v.1.15,2013-08-29 08:04:00,
2013-08-29 01:06:00,73.8,55.6,29.79,NNW,336,0.0,1.0,53,0.00,,,0.00,Wunderground v.1.15,2013-08-29 08:06:00,
2013-08-29 01:08:00,73.9,55.7,29.79,NNW,336,0.0,1.0,53,0.00,,,0.00,Wunderground v.1.15,2013-08-29 08:08:00,
2013-08-29 01:09:00,73.9,56.2,29.79,NNW,336,0.0,1.0,54,0.00,,,0.00,Wunderground v.1.15,2013-08-29 08:09:00,
2013-08-29 01:11:00,74.0,57.8,29.79,NNW,336,1.0,2.0,57,0.00,,,0.00,Wunderground v.1.15,2013-08-29 08:11:00,
2013-08-29 01:13:00,74.2,57.0,29.79,NNW,336,1.0,3.0,55,0.00,,,0.00,Wunderground v.1.15,2013-08-29 08:13:00,
2013-08-29 01:14:00,74.3,58.1,29.79,NNW,336,1.0,3.0,57,0.00,,,0.00,Wunderground v.1.15,2013-08-29 08:14:00,
2013-08-29 01:15:00,74.3,58.1,29.79,NNW,336,2.0,3.0,57,0.00,,,0.00,Wunderground v.1.15,2013-08-29 08:15:00,
2013-08-29 01:16:00,74.4,57.7,29.79,NNW,336,3.0,3.0,56,0.00,,,0.00,Wunderground v.1.15,2013-08-29 08:16:00,
2013-08-29 01:18:00,74.5,60.6,29.79,NNW,336,2.0,3.0,62,0.00,,,0.00,Wunderground v.1.15,2013-08-29 08:18:00,
2013-08-29 01:19:00,74.5,61.1,29.79,NNW,336,2.0,3.0,63,0.00,,,0.00,Wunderground v.1.15,2013-08-29 08:19:00,
2013-08-29 01:20:00,74.4,60.5,29.79,NNW,336,3.0,3.0,62,0.00,,,0.00,Wunderground v.1.15,2013-08-29 08:20:00,
2013-08-29 01:21:00,74.4,60.1,29.79,NNW,336,3.0,3.0,61,0.00,,,0.00,Wunderground v.1.15,2013-08-29 08:21:00,
2013-08-29 01:22:00,74.3,60.0,29.79,NNW,336,3.0,4.0,61,0.00,,,0.00,Wunderground v.1.15,2013-08-29 08:22:00,
2013-08-29 01:23:00,74.3,59.0,29.79,NNW,336,2.0,4.0,59,0.00,,,0.00,Wunderground v.1.15,2013-08-29 08:23:00,
2013-08-29 01:24:00,74.2,58.5,29.79,NNW,336,3.0,4.0,58,0.00,,,0.00,Wunderground v.1.15,2013-08-29 08:24:00,
2013-08-29 01:25:00,74.2,58.5,29.79,NNW,336,4.0,4.0,58,0.00,,,0.00,Wunderground v.1.15,2013-08-29 08:25:00,
2013-08-29 01:26:00,74.2,59.9,29.79,NNW,336,3.0,4.0,61,0.00,,,0.00,Wunderground v.1.15,2013-08-29 08:26:00,
2013-08-29 01:27:00,74.2,59.9,29.79,NNW,336,2.0,4.0,61,0.00,,,0.00,Wunderground v.1.15,2013-08-29 08:27:00,
2013-08-29 01:28:00,74.2,60.8,29.79,NNW,336,3.0,4.0,63,0.00,,,0.00,Wunderground v.1.15,2013-08-29 08:28:00,
2013-08-29 01:29:00,74.2,61.7,29.79,NNW,336,1.0,4.0,65,0.00,,,0.00,Wunderground v.1.15,2013-08-29 08:29:00,
2013-08-29 01:30:00,74.1,61.6,29.79,NNW,336,0.0,4.0,65,0.00,,,0.00,Wunderground v.1.15,2013-08-29 08:30:00,
2013-08-29 01:31:00,74.0,61.5,29.79,NNW,336,3.0,3.0,65,0.00,,,0.00,Wunderground v.1.15,2013-08-29 08:31:00,
2013-08-29 01:32:00,74.0,61.9,29.79,NNW,336,2.0,4.0,66,0.00,,,0.00,Wunderground v.1.15,2013-08-29 08:32:00,
2013-08-29 01:33:00,73.9,62.7,29.78,NNW,336,3.0,4.0,68,0.00,,,0.00,Wunderground v.1.15,2013-08-29 08:33:00,
2013-08-29 01:35:00,73.7,62.1,29.78,NNW,336,2.0,4.0,67,0.00,,,0.00,Wunderground v.1.15,2013-08-29 08:35:00,
2013-08-29 01:36:00,73.5,60.6,29.78,NNW,336,3.0,4.0,64,0.00,,,0.00,Wunderground v.1.15,2013-08-29 08:36:00,
2013-08-29 01:37:00,73.2,60.3,29.78,NNW,336,4.0,4.0,64,0.00,,,0.00,Wunderground v.1.15,2013-08-29 08:37:00,
2013-08-29 01:38:00,72.6,57.9,29.78,NNW,336,4.0,5.0,60,0.00,,,0.00,Wunderground v.1.15,2013-08-29 08:38:00,
2013-08-29 01:40:00,72.0,57.4,29.78,NNW,336,4.0,5.0,60,0.00,,,0.00,Wunderground v.1.15,2013-08-29 08:40:00,
2013-08-29 01:41:00,71.7,57.1,29.78,NNW,336,4.0,5.0,60,0.00,,,0.00,Wunderground v.1.15,2013-08-29 08:41:00,
2013-08-29 01:43:00,71.3,56.2,29.78,NNW,336,2.0,5.0,59,0.00,,,0.00,Wunderground v.1.15,2013-08-29 08:43:00,
2013-08-29 01:44:00,71.4,56.3,29.78,NNW,336,3.0,5.0,59,0.00,,,0.00,Wunderground v.1.15,2013-08-29 08:44:00,
2013-08-29 01:45:00,71.5,57.3,29.77,NNW,336,3.0,5.0,61,0.00,,,0.00,Wunderground v.1.15,2013-08-29 08:45:00,
2013-08-29 01:46:00,71.6,56.5,29.77,NNW,336,4.0,5.0,59,0.00,,,0.00,Wunderground v.1.15,2013-08-29 08:46:00,
2013-08-29 01:47:00,71.7,56.6,29.77,NNW,336,3.0,5.0,59,0.00,,,0.00,Wunderground v.1.15,2013-08-29 08:47:00,
2013-08-29 01:48:00,71.8,56.7,29.77,NNW,336,3.0,5.0,59,0.00,,,0.00,Wunderground v.1.15,2013-08-29 08:48:00,
2013-08-29 01:49:00,71.9,56.3,29.77,NNW,336,4.0,5.0,58,0.00,,,0.00,Wunderground v.1.15,2013-08-29 08:49:00,
2013-08-29 01:50:00,72.1,56.0,29.77,NNW,336,4.0,4.0,57,0.00,,,0.00,Wunderground v.1.15,2013-08-29 08:50:00,
2013-08-29 01:51:00,72.3,56.2,29.78,NNW,336,3.0,5.0,57,0.00,,,0.00,Wunderground v.1.15,2013-08-29 08:51:00,
2013-08-29 01:52:00,72.6,56.5,29.78,NNW,336,3.0,5.0,57,0.00,,,0.00,Wunderground v.1.15,2013-08-29 08:52:00,
2013-08-29 01:53:00,72.7,56.1,29.78,NNW,336,0.0,5.0,56,0.00,,,0.00,Wunderground v.1.15,2013-08-29 08:53:00,
2013-08-29 01:54:00,72.7,56.1,29.78,NNW,336,0.0,5.0,56,0.00,,,0.00,Wunderground v.1.15,2013-08-29 08:54:00,
2013-08-29 01:55:00,72.7,56.1,29.78,NNW,336,0.0,5.0,56,0.00,,,0.00,Wunderground v.1.15,2013-08-29 08:55:00,
2013-08-29 01:56:00,72.8,56.7,29.78,NNW,336,0.0,5.0,57,0.00,,,0.00,Wunderground v.1.15,2013-08-29 08:56:00,
2013-08-29 01:58:00,72.8,56.2,29.78,NNW,336,0.0,5.0,56,0.00,,,0.00,Wunderground v.1.15,2013-08-29 08:58:00,
2013-08-29 01:59:00,72.8,56.2,29.78,NNW,336,0.0,5.0,56,0.00,,,0.00,Wunderground v.1.15,2013-08-29 08:59:00,
2013-08-29 02:00:00,72.8,57.2,29.78,NNW,336,1.0,1.0,58,0.00,,,0.00,Wunderground v.1.15,2013-08-29 09:00:00,
2013-08-29 02:01:00,72.9,59.1,29.77,NNW,336,0.0,1.0,62,0.00,,,0.00,Wunderground v.1.15,2013-08-29 09:01:00,
2013-08-29 02:03:00,73.0,57.8,29.77,NNW,336,0.0,2.0,59,0.00,,,0.00,Wunderground v.1.15,2013-08-29 09:03:00,
2013-08-29 02:04:00,73.0,57.3,29.77,NNW,336,2.0,2.0,58,0.00,,,0.00,Wunderground v.1.15,2013-08-29 09:04:00,
2013-08-29 02:05:00,73.0,57.8,29.77,NNW,336,2.0,4.0,59,0.00,,,0.00,Wunderground v.1.15,2013-08-29 09:05:00,
2013-08-29 02:06:00,73.1,58.8,29.77,NNW,336,3.0,4.0,61,0.00,,,0.00,Wunderground v.1.15,2013-08-29 09:06:00,
2013-08-29 02:08:00,73.1,57.9,29.77,NNW,336,4.0,5.0,59,0.00,,,0.00,Wunderground v.1.15,2013-08-29 09:08:00,
2013-08-29 02:09:00,73.1,56.5,29.77,NNW,336,4.0,5.0,56,0.00,,,0.00,Wunderground v.1.15,2013-08-29 09:09:00,
2013-08-29 02:10:00,73.1,57.0,29.77,NNW,336,5.0,5.0,57,0.00,,,0.00,Wunderground v.1.15,2013-08-29 09:10:00,
2013-08-29 02:11:00,73.0,55.9,29.77,NNW,336,5.0,8.0,55,0.00,,,0.00,Wunderground v.1.15,2013-08-29 09:11:00,
2013-08-29 02:13:00,73.0,55.9,29.77,NNW,336,6.0,10.0,55,0.00,,,0.00,Wunderground v.1.15,2013-08-29 09:13:00,
2013-08-29 02:14:00,73.0,55.9,29.77,NNW,336,7.0,10.0,55,0.00,,,0.00,Wunderground v.1.15,2013-08-29 09:14:00,
2013-08-29 02:15:00,73.2,56.1,29.78,NNW,336,8.0,10.0,55,0.00,,,0.00,Wunderground v.1.15,2013-08-29 09:15:00,
2013-08-29 02:16:00,73.4,56.2,29.77,NNW,336,7.0,10.0,55,0.00,,,0.00,Wunderground v.1.15,2013-08-29 09:16:00,
2013-08-29 02:18:00,73.5,56.3,29.78,NNW,336,5.0,10.0,55,0.00,,,0.00,Wunderground v.1.15,2013-08-29 09:18:00,
2013-08-29 02:19:00,73.5,56.3,29.78,NNW,336,6.0,10.0,55,0.00,,,0.00,Wunderground v.1.15,2013-08-29 09:19:00,
2013-08-29 02:20:00,73.6,56.4,29.78,NNW,336,3.0,10.0,55,0.00,,,0.00,Wunderground v.1.15,2013-08-29 09:20:00,
2013-08-29 02:21:00,73.6,56.4,29.78,NNW,336,3.0,6.0,55,0.00,,,0.00,Wunderground v.1.15,2013-08-29 09:21:00,
2013-08-29 02:24:00,73.5,57.3,29.77,NNW,336,3.0,6.0,57,0.00,,,0.00,Wunderground v.1.15,2013-08-29 09:24:00,
2013-08-29 02:25:00,73.4,56.7,29.77,NNW,336,4.0,6.0,56,0.00,,,0.00,Wunderground v.1.15,2013-08-29 09:25:00,
2013-08-29 02:26:00,73.2,55.6,29.77,NNW,337,6.0,7.0,54,0.00,,,0.00,Wunderground v.1.15,2013-08-29 09:26:00,
2013-08-29 02:29:00,73.1,56.0,29.77,North,5,5.0,11.0,55,0.00,,,0.00,Wunderground v.1.15,2013-08-29 09:29:00,
2013-08-29 02:30:00,73.1,55.5,29.77,North,5,10.0,11.0,54,0.00,,,0.00,Wunderground v.1.15,2013-08-29 09:30:00,
2013-08-29 02:32:00,73.2,56.1,29.77,North,5,7.0,10.0,55,0.00,,,0.00,Wunderground v.1.15,2013-08-29 09:32:00,
2013-08-29 02:34:00,73.3,55.6,29.77,North,5,4.0,10.0,54,0.00,,,0.00,Wunderground v.1.15,2013-08-29 09:34:00,
2013-08-29 02:35:00,73.3,55.6,29.77,North,5,10.0,10.0,54,0.00,,,0.00,Wunderground v.1.15,2013-08-29 09:35:00,
2013-08-29 02:36:00,73.3,55.6,29.77,North,5,11.0,11.0,54,0.00,,,0.00,Wunderground v.1.15,2013-08-29 09:36:00,
2013-08-29 02:37:00,73.3,55.6,29.77,North,5,8.0,11.0,54,0.00,,,0.00,Wunderground v.1.15,2013-08-29 09:37:00,
2013-08-29 02:39:00,73.4,56.2,29.77,North,355,8.0,12.0,55,0.00,,,0.00,Wunderground v.1.15,2013-08-29 09:39:00,
2013-08-29 02:40:00,73.5,55.8,29.77,North,5,9.0,13.0,54,0.00,,,0.00,Wunderground v.1.15,2013-08-29 09:40:00,
2013-08-29 02:41:00,73.5,55.8,29.77,North,360,9.0,13.0,54,0.00,,,0.00,Wunderground v.1.15,2013-08-29 09:41:00,
2013-08-29 02:42:00,73.6,55.4,29.77,North,5,10.0,15.0,53,0.00,,,0.00,Wunderground v.1.15,2013-08-29 09:42:00,
2013-08-29 02:44:00,73.7,55.5,29.77,North,5,10.0,16.0,53,0.00,,,0.00,Wunderground v.1.15,2013-08-29 09:44:00,
2013-08-29 02:46:00,73.7,56.0,29.77,North,360,7.0,16.0,54,0.00,,,0.00,Wunderground v.1.15,2013-08-29 09:46:00,
2013-08-29 02:47:00,73.6,55.4,29.77,North,360,13.0,16.0,53,0.00,,,0.00,Wunderground v.1.15,2013-08-29 09:47:00,
2013-08-29 02:49:00,73.5,55.8,29.77,North,5,14.0,16.0,54,0.00,,,0.00,Wunderground v.1.15,2013-08-29 09:49:00,
2013-08-29 02:51:00,73.5,55.3,29.77,North,350,12.0,13.0,53,0.00,,,0.00,Wunderground v.1.15,2013-08-29 09:51:00,
2013-08-29 02:52:00,73.5,55.3,29.77,North,9,9.0,15.0,53,0.00,,,0.00,Wunderground v.1.15,2013-08-29 09:52:00,
2013-08-29 02:54:00,73.4,55.2,29.77,North,5,7.0,16.0,53,0.00,,,0.00,Wunderground v.1.15,2013-08-29 09:54:00,
2013-08-29 02:55:00,73.4,55.7,29.77,North,9,13.0,16.0,54,0.00,,,0.00,Wunderground v.1.15,2013-08-29 09:55:00,
2013-08-29 02:56:00,73.4,55.2,29.77,North,5,12.0,17.0,53,0.00,,,0.00,Wunderground v.1.15,2013-08-29 09:56:00,
2013-08-29 02:57:00,73.4,55.2,29.77,North,5,10.0,17.0,53,0.00,,,0.00,Wunderground v.1.15,2013-08-29 09:57:00,
2013-08-29 02:59:00,73.5,55.3,29.77,North,5,11.0,17.0,53,0.00,,,0.00,Wunderground v.1.15,2013-08-29 09:59:00,
2013-08-29 03:00:00,73.5,55.3,29.77,North,5,13.0,17.0,53,0.00,,,0.00,Wunderground v.1.15,2013-08-29 10:00:00,
2013-08-29 03:01:00,73.5,55.3,29.77,North,5,11.0,16.0,53,0.00,,,0.00,Wunderground v.1.15,2013-08-29 10:01:00,
2013-08-29 03:02:00,73.5,55.3,29.77,North,360,11.0,16.0,53,0.00,,,0.00,Wunderground v.1.15,2013-08-29 10:02:00,
2013-08-29 03:04:00,73.5,55.3,29.77,North,5,8.0,16.0,53,0.00,,,0.00,Wunderground v.1.15,2013-08-29 10:04:00,
2013-08-29 03:05:00,73.5,55.3,29.77,North,5,11.0,16.0,53,0.00,,,0.00,Wunderground v.1.15,2013-08-29 10:05:00,
2013-08-29 03:06:00,73.5,55.3,29.77,North,5,13.0,16.0,53,0.00,,,0.00,Wunderground v.1.15,2013-08-29 10:06:00,
2013-08-29 03:07:00,73.5,54.8,29.77,NNE,16,9.0,16.0,52,0.00,,,0.00,Wunderground v.1.15,2013-08-29 10:07:00,
2013-08-29 03:08:00,73.5,55.3,29.77,NNE,15,10.0,16.0,53,0.00,,,0.00,Wunderground v.1.15,2013-08-29 10:08:00,
2013-08-29 03:09:00,73.5,55.3,29.77,NNE,14,9.0,16.0,53,0.00,,,0.00,Wunderground v.1.15,2013-08-29 10:09:00,
2013-08-29 03:10:00,73.4,55.2,29.77,North,360,11.0,11.0,53,0.00,,,0.00,Wunderground v.1.15,2013-08-29 10:10:00,
2013-08-29 03:11:00,73.4,55.7,29.77,North,5,11.0,12.0,54,0.00,,,0.00,Wunderground v.1.15,2013-08-29 10:11:00,
2013-08-29 03:12:00,73.4,55.7,29.77,North,360,7.0,12.0,54,0.00,,,0.00,Wunderground v.1.15,2013-08-29 10:12:00,
2013-08-29 03:13:00,73.3,55.1,29.77,North,5,10.0,13.0,53,0.00,,,0.00,Wunderground v.1.15,2013-08-29 10:13:00,
2013-08-29 03:14:00,73.3,55.1,29.77,North,9,10.0,14.0,53,0.00,,,0.00,Wunderground v.1.15,2013-08-29 10:14:00,
2013-08-29 03:15:00,73.2,55.0,29.77,NNE,16,13.0,15.0,53,0.00,,,0.00,Wunderground v.1.15,2013-08-29 10:15:00,
2013-08-29 03:16:00,73.2,55.0,29.77,NNE,12,13.0,15.0,53,0.00,,,0.00,Wunderground v.1.15,2013-08-29 10:16:00,
2013-08-29 03:17:00,73.2,54.5,29.77,North,5,12.0,15.0,52,0.00,,,0.00,Wunderground v.1.15,2013-08-29 10:17:00,
2013-08-29 03:18:00,73.2,54.5,29.77,North,355,10.0,15.0,52,0.00,,,0.00,Wunderground v.1.15,2013-08-29 10:18:00,
2013-08-29 03:19:00,73.1,54.9,29.77,North,355,9.0,15.0,53,0.00,,,0.00,Wunderground v.1.15,2013-08-29 10:19:00,
2013-08-29 03:21:00,73.1,54.9,29.77,North,5,9.0,13.0,53,0.00,,,0.00,Wunderground v.1.15,2013-08-29 10:21:00,
2013-08-29 03:22:00,73.0,54.9,29.77,NNE,15,15.0,17.0,53,0.00,,,0.00,Wunderground v.1.15,2013-08-29 10:22:00,
2013-08-29 03:23:00,73.0,54.9,29.77,NNE,14,16.0,17.0,53,0.00,,,0.00,Wunderground v.1.15,2013-08-29 10:23:00,
2013-08-29 03:24:00,73.1,54.9,29.77,North,5,9.0,17.0,53,0.00,,,0.00,Wunderground v.1.15,2013-08-29 10:24:00,
2013-08-29 03:26:00,73.1,54.4,29.77,North,355,12.0,17.0,52,0.00,,,0.00,Wunderground v.1.15,2013-08-29 10:26:00,
2013-08-29 03:27:00,73.2,55.0,29.77,North,5,13.0,17.0,53,0.00,,,0.00,Wunderground v.1.15,2013-08-29 10:27:00,
2013-08-29 03:28:00,73.2,55.0,29.77,NNE,13,11.0,17.0,53,0.00,,,0.00,Wunderground v.1.15,2013-08-29 10:28:00,
2013-08-29 03:29:00,73.2,55.0,29.77,North,360,10.0,17.0,53,0.00,,,0.00,Wunderground v.1.15,2013-08-29 10:29:00,
2013-08-29 03:31:00,73.1,54.4,29.76,NNE,13,10.0,17.0,52,0.00,,,0.00,Wunderground v.1.15,2013-08-29 10:31:00,
2013-08-29 03:32:00,73.2,54.5,29.76,NNE,23,13.0,17.0,52,0.00,,,0.00,Wunderground v.1.15,2013-08-29 10:32:00,
2013-08-29 03:33:00,73.1,54.9,29.76,NNE,15,10.0,17.0,53,0.00,,,0.00,Wunderground v.1.15,2013-08-29 10:33:00,
2013-08-29 03:34:00,73.1,54.9,29.76,NNE,19,10.0,17.0,53,0.00,,,0.00,Wunderground v.1.15,2013-08-29 10:34:00,
2013-08-29 03:36:00,73.1,54.9,29.76,North,5,9.0,17.0,53,0.00,,,0.00,Wunderground v.1.15,2013-08-29 10:36:00,
2013-08-29 03:37:00,73.1,55.5,29.76,North,5,9.0,17.0,54,0.00,,,0.00,Wunderground v.1.15,2013-08-29 10:37:00,
2013-08-29 03:38:00,73.1,54.9,29.76,North,5,10.0,17.0,53,0.00,,,0.00,Wunderground v.1.15,2013-08-29 10:38:00,
2013-08-29 03:39:00,73.1,54.9,29.76,NNE,13,13.0,17.0,53,0.00,,,0.00,Wunderground v.1.15,2013-08-29 10:39:00,
2013-08-29 03:41:00,73.1,55.5,29.76,North,5,9.0,12.0,54,0.00,,,0.00,Wunderground v.1.15,2013-08-29 10:41:00,
2013-08-29 03:42:00,73.2,55.0,29.76,North,5,10.0,12.0,53,0.00,,,0.00,Wunderground v.1.15,2013-08-29 10:42:00,
2013-08-29 03:43:00,73.2,55.0,29.76,North,11,14.0,14.0,53,0.00,,,0.00,Wunderground v.1.15,2013-08-29 10:43:00,
2013-08-29 03:44:00,73.3,55.1,29.76,North,5,7.0,14.0,53,0.00,,,0.00,Wunderground v.1.15,2013-08-29 10:44:00,
2013-08-29 03:45:00,73.2,55.0,29.76,NNE,15,8.0,14.0,53,0.00,,,0.00,Wunderground v.1.15,2013-08-29 10:45:00,
2013-08-29 03:46:00,73.3,55.1,29.76,North,11,11.0,14.0,53,0.00,,,0.00,Wunderground v.1.15,2013-08-29 10:46:00,
2013-08-29 03:47:00,73.3,55.1,29.76,North,5,5.0,14.0,53,0.00,,,0.00,Wunderground v.1.15,2013-08-29 10:47:00,
2013-08-29 03:48:00,73.3,55.1,29.76,North,5,8.0,14.0,53,0.00,,,0.00,Wunderground v.1.15,2013-08-29 10:48:00,
2013-08-29 03:49:00,73.3,55.1,29.76,North,5,8.0,14.0,53,0.00,,,0.00,Wunderground v.1.15,2013-08-29 10:49:00,
2013-08-29 03:50:00,73.3,55.6,29.76,North,5,13.0,14.0,54,0.00,,,0.00,Wunderground v.1.15,2013-08-29 10:50:00,
2013-08-29 03:51:00,73.3,55.1,29.76,NNE,15,14.0,14.0,53,0.00,,,0.00,Wunderground v.1.15,2013-08-29 10:51:00,
2013-08-29 03:52:00,73.3,55.1,29.76,NNE,25,10.0,14.0,53,0.00,,,0.00,Wunderground v.1.15,2013-08-29 10:52:00,
2013-08-29 03:54:00,73.3,54.6,29.76,NNE,17,9.0,14.0,52,0.00,,,0.00,Wunderground v.1.15,2013-08-29 10:54:00,
2013-08-29 03:55:00,73.4,54.7,29.76,North,355,7.0,15.0,52,0.00,,,0.00,Wunderground v.1.15,2013-08-29 10:55:00,
2013-08-29 03:56:00,73.4,55.2,29.76,North,5,9.0,15.0,53,0.00,,,0.00,Wunderground v.1.15,2013-08-29 10:56:00,
2013-08-29 03:57:00,73.3,55.1,29.76,North,5,5.0,15.0,53,0.00,,,0.00,Wunderground v.1.15,2013-08-29 10:57:00,
2013-08-29 03:58:00,73.3,55.1,29.76,North,5,5.0,15.0,53,0.00,,,0.00,Wunderground v.1.15,2013-08-29 10:58:00,
2013-08-29 03:59:00,73.3,55.6,29.76,North,5,8.0,15.0,54,0.00,,,0.00,Wunderground v.1.15,2013-08-29 10:59:00,
2013-08-29 04:00:00,73.3,55.6,29.75,North,5,5.0,9.0,54,0.00,,,0.00,Wunderground v.1.15,2013-08-29 11:00:00,
2013-08-29 04:01:00,73.2,55.0,29.75,North,9,6.0,9.0,53,0.00,,,0.00,Wunderground v.1.15,2013-08-29 11:01:00,
2013-08-29 04:02:00,73.1,55.5,29.75,NNE,13,7.0,9.0,54,0.00,,,0.00,Wunderground v.1.15,2013-08-29 11:02:00,
2013-08-29 04:03:00,73.1,54.9,29.75,NNE,12,4.0,9.0,53,0.00,,,0.00,Wunderground v.1.15,2013-08-29 11:03:00,
2013-08-29 04:04:00,73.0,55.4,29.75,North,9,3.0,9.0,54,0.00,,,0.00,Wunderground v.1.15,2013-08-29 11:04:00,
2013-08-29 04:05:00,73.0,55.4,29.75,North,9,1.0,9.0,54,0.00,,,0.00,Wunderground v.1.15,2013-08-29 11:05:00,
2013-08-29 04:06:00,73.0,56.4,29.75,North,9,0.0,9.0,56,0.00,,,0.00,Wunderground v.1.15,2013-08-29 11:06:00,
2013-08-29 04:07:00,73.0,55.9,29.76,North,9,0.0,9.0,55,0.00,,,0.00,Wunderground v.1.15,2013-08-29 11:07:00,
2013-08-29 04:08:00,72.9,55.8,29.75,North,9,0.0,9.0,55,0.00,,,0.00,Wunderground v.1.15,2013-08-29 11:08:00,
2013-08-29 04:09:00,72.8,55.2,29.75,North,9,0.0,9.0,54,0.00,,,0.00,Wunderground v.1.15,2013-08-29 11:09:00,
2013-08-29 04:10:00,72.7,55.1,29.75,North,9,0.0,9.0,54,0.00,,,0.00,Wunderground v.1.15,2013-08-29 11:10:00,
2013-08-29 04:11:00,72.6,55.0,29.75,North,9,0.0,3.0,54,0.00,,,0.00,Wunderground v.1.15,2013-08-29 11:11:00,
2013-08-29 04:12:00,72.5,55.9,29.75,North,9,1.0,3.0,56,0.00,,,0.00,Wunderground v.1.15,2013-08-29 11:12:00,
2013-08-29 04:13:00,72.4,54.8,29.75,North,9,0.0,3.0,54,0.00,,,0.00,Wunderground v.1.15,2013-08-29 11:13:00,
2013-08-29 04:14:00,72.4,55.3,29.75,North,9,1.0,3.0,55,0.00,,,0.00,Wunderground v.1.15,2013-08-29 11:14:00,
2013-08-29 04:15:00,72.2,55.1,29.75,North,9,3.0,3.0,55,0.00,,,0.00,Wunderground v.1.15,2013-08-29 11:15:00,
2013-08-29 04:16:00,72.2,55.1,29.75,North,9,3.0,3.0,55,0.00,,,0.00,Wunderground v.1.15,2013-08-29 11:16:00,
2013-08-29 04:17:00,71.8,55.3,29.75,North,9,1.0,3.0,56,0.00,,,0.00,Wunderground v.1.15,2013-08-29 11:17:00,
2013-08-29 04:18:00,71.7,55.2,29.75,North,9,1.0,3.0,56,0.00,,,0.00,Wunderground v.1.15,2013-08-29 11:18:00,
2013-08-29 04:19:00,71.5,55.5,29.75,North,355,4.0,7.0,57,0.00,,,0.00,Wunderground v.1.15,2013-08-29 11:19:00,
2013-08-29 04:21:00,71.5,55.9,29.75,North,355,4.0,5.0,58,0.00,,,0.00,Wunderground v.1.15,2013-08-29 11:21:00,
2013-08-29 04:22:00,71.6,56.0,29.75,North,355,3.0,6.0,58,0.00,,,0.00,Wunderground v.1.15,2013-08-29 11:22:00,
2013-08-29 04:23:00,71.6,56.5,29.75,NNW,348,6.0,7.0,59,0.00,,,0.00,Wunderground v.1.15,2013-08-29 11:23:00,
2013-08-29 04:24:00,71.7,56.1,29.75,NNW,346,2.0,7.0,58,0.00,,,0.00,Wunderground v.1.15,2013-08-29 11:24:00,
2013-08-29 04:26:00,71.9,57.3,29.75,NNW,346,3.0,7.0,60,0.00,,,0.00,Wunderground v.1.15,2013-08-29 11:26:00,
2013-08-29 04:27:00,72.0,56.9,29.75,NNW,346,3.0,7.0,59,0.00,,,0.00,Wunderground v.1.15,2013-08-29 11:27:00,
2013-08-29 04:28:00,72.0,56.4,29.75,NNW,346,3.0,7.0,58,0.00,,,0.00,Wunderground v.1.15,2013-08-29 11:28:00,
2013-08-29 04:29:00,71.9,55.8,29.75,NNW,346,3.0,7.0,57,0.00,,,0.00,Wunderground v.1.15,2013-08-29 11:29:00,
2013-08-29 04:31:00,71.8,55.3,29.75,NNE,17,7.0,8.0,56,0.00,,,0.00,Wunderground v.1.15,2013-08-29 11:31:00,
2013-08-29 04:32:00,71.9,54.9,29.75,NNE,24,5.0,9.0,55,0.00,,,0.00,Wunderground v.1.15,2013-08-29 11:32:00,
2013-08-29 04:33:00,72.1,55.0,29.75,NNE,23,5.0,9.0,55,0.00,,,0.00,Wunderground v.1.15,2013-08-29 11:33:00,
2013-08-29 04:34:00,72.2,55.1,29.75,NNE,15,5.0,9.0,55,0.00,,,0.00,Wunderground v.1.15,2013-08-29 11:34:00,
2013-08-29 04:36:00,72.3,55.7,29.75,NNE,13,2.0,9.0,56,0.00,,,0.00,Wunderground v.1.15,2013-08-29 11:36:00,
2013-08-29 04:37:00,72.4,56.3,29.75,North,10,2.0,9.0,57,0.00,,,0.00,Wunderground v.1.15,2013-08-29 11:37:00,
2013-08-29 04:38:00,72.4,56.3,29.75,North,10,5.0,9.0,57,0.00,,,0.00,Wunderground v.1.15,2013-08-29 11:38:00,
2013-08-29 04:39:00,72.4,56.8,29.75,North,10,4.0,9.0,58,0.00,,,0.00,Wunderground v.1.15,2013-08-29 11:39:00,
2013-08-29 04:41:00,72.3,55.7,29.75,North,360,4.0,8.0,56,0.00,,,0.00,Wunderground v.1.15,2013-08-29 11:41:00,
2013-08-29 04:42:00,72.4,55.8,29.75,North,360,8.0,12.0,56,0.00,,,0.00,Wunderground v.1.15,2013-08-29 11:42:00,
2013-08-29 04:43:00,72.5,55.9,29.75,North,355,9.0,12.0,56,0.00,,,0.00,Wunderground v.1.15,2013-08-29 11:43:00,
2013-08-29 04:45:00,72.7,55.6,29.75,North,355,8.0,14.0,55,0.00,,,0.00,Wunderground v.1.15,2013-08-29 11:45:00,
2013-08-29 04:46:00,72.9,55.8,29.75,North,360,8.0,14.0,55,0.00,,,0.00,Wunderground v.1.15,2013-08-29 11:46:00,
2013-08-29 04:48:00,73.0,55.4,29.75,North,350,13.0,14.0,54,0.00,,,0.00,Wunderground v.1.15,2013-08-29 11:48:00,
2013-08-29 04:50:00,72.9,55.3,29.75,North,5,6.0,14.0,54,0.00,,,0.00,Wunderground v.1.15,2013-08-29 11:50:00,
2013-08-29 04:51:00,72.8,55.2,29.75,North,5,9.0,14.0,54,0.00,,,0.00,Wunderground v.1.15,2013-08-29 11:51:00,
2013-08-29 04:53:00,72.7,55.1,29.75,North,9,10.0,14.0,54,0.00,,,0.00,Wunderground v.1.15,2013-08-29 11:53:00,
2013-08-29 04:55:00,72.5,55.4,29.75,North,355,6.0,14.0,55,0.00,,,0.00,Wunderground v.1.15,2013-08-29 11:55:00,
2013-08-29 04:56:00,72.5,56.9,29.75,North,350,2.0,14.0,58,0.00,,,0.00,Wunderground v.1.15,2013-08-29 11:56:00,
2013-08-29 04:57:00,72.4,56.8,29.75,North,350,3.0,14.0,58,0.00,,,0.00,Wunderground v.1.15,2013-08-29 11:57:00,
2013-08-29 04:58:00,72.4,57.7,29.75,NNW,340,6.0,14.0,60,0.00,,,0.00,Wunderground v.1.15,2013-08-29 11:58:00,
2013-08-29 05:00:00,72.4,56.8,29.75,NNW,346,7.0,14.0,58,0.00,,,0.00,Wunderground v.1.15,2013-08-29 12:00:00,
2013-08-29 05:02:00,72.3,56.2,29.75,North,355,2.0,12.0,57,0.00,,,0.00,Wunderground v.1.15,2013-08-29 12:02:00,
2013-08-29 05:03:00,72.2,55.6,29.75,North,5,1.0,12.0,56,0.00,,,0.00,Wunderground v.1.15,2013-08-29 12:03:00,
2013-08-29 05:04:00,72.2,55.1,29.75,North,5,6.0,12.0,55,0.00,,,0.00,Wunderground v.1.15,2013-08-29 12:04:00,
2013-08-29 05:05:00,72.2,55.6,29.75,North,9,5.0,12.0,56,0.00,,,0.00,Wunderground v.1.15,2013-08-29 12:05:00,
2013-08-29 05:07:00,72.1,55.5,29.75,NNE,13,11.0,13.0,56,0.00,,,0.00,Wunderground v.1.15,2013-08-29 12:07:00,
2013-08-29 05:08:00,72.1,55.5,29.75,NNE,24,5.0,13.0,56,0.00,,,0.00,Wunderground v.1.15,2013-08-29 12:08:00,
2013-08-29 05:09:00,72.1,55.0,29.75,NNE,28,4.0,13.0,55,0.00,,,0.00,Wunderground v.1.15,2013-08-29 12:09:00,
2013-08-29 05:10:00,72.1,55.0,29.75,NNE,32,4.0,13.0,55,0.00,,,0.00,Wunderground v.1.15,2013-08-29 12:10:00,
2013-08-29 05:12:00,72.0,54.9,29.75,NE,34,5.0,8.0,55,0.00,,,0.00,Wunderground v.1.15,2013-08-29 12:12:00,
2013-08-29 05:13:00,71.9,55.3,29.75,NNW,338,2.0,13.0,56,0.00,,,0.00,Wunderground v.1.15,2013-08-29 12:13:00,
2013-08-29 05:14:00,71.9,55.8,29.75,NNW,343,3.0,13.0,57,0.00,,,0.00,Wunderground v.1.15,2013-08-29 12:14:00,
2013-08-29 05:15:00,71.8,55.7,29.75,NNW,343,3.0,13.0,57,0.00,,,0.00,Wunderground v.1.15,2013-08-29 12:15:00,
2013-08-29 05:17:00,71.8,56.7,29.76,NNW,343,1.0,13.0,59,0.00,,,0.00,Wunderground v.1.15,2013-08-29 12:17:00,
2013-08-29 05:18:00,71.8,57.6,29.76,NW,317,6.0,13.0,61,0.00,,,0.00,Wunderground v.1.15,2013-08-29 12:18:00,
2013-08-29 05:20:00,71.6,55.6,29.76,WNW,291,5.0,13.0,57,0.00,,,0.00,Wunderground v.1.15,2013-08-29 12:20:00,
2013-08-29 05:22:00,71.2,55.2,29.76,SW,236,5.0,8.0,57,0.00,,,0.00,Wunderground v.1.15,2013-08-29 12:22:00,
2013-08-29 05:23:00,70.9,55.4,29.76,SW,229,7.0,8.0,58,0.00,,,0.00,Wunderground v.1.15,2013-08-29 12:23:00,
2013-08-29 05:25:00,70.4,54.9,29.76,SW,215,7.0,9.0,58,0.00,,,0.00,Wunderground v.1.15,2013-08-29 12:25:00,
2013-08-29 05:27:00,70.0,55.0,29.76,SSW,211,2.0,9.0,59,0.00,,,0.00,Wunderground v.1.15,2013-08-29 12:27:00,
2013-08-29 05:28:00,69.8,55.3,29.76,SSW,211,6.0,9.0,60,0.00,,,0.00,Wunderground v.1.15,2013-08-29 12:28:00,
2013-08-29 05:30:00,69.4,54.9,29.76,SW,223,6.0,9.0,60,0.00,,,0.00,Wunderground v.1.15,2013-08-29 12:30:00,
2013-08-29 05:32:00,69.5,55.9,29.76,SW,236,5.0,10.0,62,0.00,,,0.00,Wunderground v.1.15,2013-08-29 12:32:00,
2013-08-29 05:33:00,69.5,55.9,29.76,SW,236,4.0,10.0,62,0.00,,,0.00,Wunderground v.1.15,2013-08-29 12:33:00,
2013-08-29 05:35:00,70.0,56.4,29.76,WSW,250,6.0,10.0,62,0.00,,,0.00,Wunderground v.1.15,2013-08-29 12:35:00,
2013-08-29 05:37:00,70.4,55.4,29.76,SW,222,11.0,11.0,59,0.00,,,0.00,Wunderground v.1.15,2013-08-29 12:37:00,
2013-08-29 05:38:00,70.5,55.0,29.76,SW,222,6.0,11.0,58,0.00,,,0.00,Wunderground v.1.15,2013-08-29 12:38:00,
2013-08-29 05:39:00,70.6,55.1,29.76,SW,221,3.0,11.0,58,0.00,,,0.00,Wunderground v.1.15,2013-08-29 12:39:00,
2013-08-29 05:40:00,70.8,55.3,29.76,SW,222,6.0,11.0,58,0.00,,,0.00,Wunderground v.1.15,2013-08-29 12:40:00,
2013-08-29 05:41:00,70.9,54.9,29.76,SW,217,6.0,7.0,57,0.00,,,0.00,Wunderground v.1.15,2013-08-29 12:41:00,
2013-08-29 05:42:00,71.0,55.0,29.76,South,179,2.0,11.0,57,0.00,,,0.00,Wunderground v.1.15,2013-08-29 12:42:00,
2013-08-29 05:43:00,71.1,54.6,29.76,SE,145,6.0,11.0,56,0.00,,,0.00,Wunderground v.1.15,2013-08-29 12:43:00,
2013-08-29 05:44:00,71.1,54.6,29.76,SE,146,6.0,11.0,56,0.00,,,0.00,Wunderground v.1.15,2013-08-29 12:44:00,
2013-08-29 05:45:00,71.3,54.8,29.76,South,169,5.0,11.0,56,0.00,,,0.00,Wunderground v.1.15,2013-08-29 12:45:00,
2013-08-29 05:46:00,71.5,54.5,29.76,South,170,4.0,11.0,55,0.00,,,0.00,Wunderground v.1.15,2013-08-29 12:46:00,
2013-08-29 05:47:00,71.7,54.7,29.76,South,170,0.0,11.0,55,0.00,,,0.00,Wunderground v.1.15,2013-08-29 12:47:00,
2013-08-29 05:48:00,71.8,55.3,29.76,South,170,1.0,11.0,56,0.00,,,0.00,Wunderground v.1.15,2013-08-29 12:48:00,
2013-08-29 05:49:00,71.8,55.3,29.76,South,175,4.0,11.0,56,0.00,,,0.00,Wunderground v.1.15,2013-08-29 12:49:00,
2013-08-29 05:50:00,71.7,54.7,29.76,South,178,4.0,11.0,55,0.00,,,0.00,Wunderground v.1.15,2013-08-29 12:50:00,
2013-08-29 05:51:00,71.7,54.7,29.76,South,178,4.0,5.0,55,0.00,,,0.00,Wunderground v.1.15,2013-08-29 12:51:00,
2013-08-29 05:52:00,71.7,55.2,29.76,South,178,2.0,5.0,56,0.00,,,0.00,Wunderground v.1.15,2013-08-29 12:52:00,
2013-08-29 05:53:00,71.7,55.2,29.76,South,179,0.0,5.0,56,0.00,,,0.00,Wunderground v.1.15,2013-08-29 12:53:00,
2013-08-29 05:54:00,71.7,54.7,29.76,South,179,0.0,5.0,55,0.00,,,0.00,Wunderground v.1.15,2013-08-29 12:54:00,
2013-08-29 05:55:00,71.8,54.8,29.77,South,179,0.0,5.0,55,0.00,,,0.00,Wunderground v.1.15,2013-08-29 12:55:00,
2013-08-29 05:57:00,71.8,54.8,29.77,ENE,70,0.0,7.0,55,0.00,,,0.00,Wunderground v.1.15,2013-08-29 12:57:00,
2013-08-29 05:58:00,71.9,54.9,29.77,ENE,70,0.0,7.0,55,0.00,,,0.00,Wunderground v.1.15,2013-08-29 12:58:00,
2013-08-29 05:59:00,71.8,54.8,29.77,ENE,71,1.0,7.0,55,0.00,,,0.00,Wunderground v.1.15,2013-08-29 12:59:00,
2013-08-29 06:00:00,71.8,54.8,29.77,ENE,71,0.0,2.0,55,0.00,,,0.00,Wunderground v.1.15,2013-08-29 13:00:00,
2013-08-29 06:02:00,71.8,54.8,29.77,ENE,69,1.0,4.0,55,0.00,,,0.00,Wunderground v.1.15,2013-08-29 13:02:00,
2013-08-29 06:03:00,71.8,54.8,29.77,ENE,69,5.0,5.0,55,0.00,,,0.00,Wunderground v.1.15,2013-08-29 13:03:00,
2013-08-29 06:04:00,71.7,54.7,29.76,ENE,61,4.0,7.0,55,0.00,,,0.00,Wunderground v.1.15,2013-08-29 13:04:00,
2013-08-29 06:05:00,71.7,55.2,29.76,ENE,59,3.0,7.0,56,0.00,,,0.00,Wunderground v.1.15,2013-08-29 13:05:00,
2013-08-29 06:07:00,71.6,55.1,29.77,ENE,59,0.0,7.0,56,0.00,,,0.00,Wunderground v.1.15,2013-08-29 13:07:00,
2013-08-29 06:08:00,71.5,55.0,29.76,ENE,69,4.0,7.0,56,0.00,,,0.00,Wunderground v.1.15,2013-08-29 13:08:00,
2013-08-29 06:09:00,71.5,55.0,29.76,ENE,71,2.0,7.0,56,0.00,,,0.00,Wunderground v.1.15,2013-08-29 13:09:00,
2013-08-29 06:10:00,71.5,54.5,29.77,ENE,71,0.0,2.0,55,0.00,,,0.00,Wunderground v.1.15,2013-08-29 13:10:00,
2013-08-29 06:11:00,71.5,55.0,29.77,ENE,71,0.0,2.0,56,0.00,,,0.00,Wunderground v.1.15,2013-08-29 13:11:00,
2013-08-29 06:12:00,71.5,55.0,29.77,ENE,70,2.0,2.0,56,0.00,,,0.00,Wunderground v.1.15,2013-08-29 13:12:00,
2013-08-29 06:13:00,71.4,55.4,29.77,ENE,58,4.0,4.0,57,0.00,,,0.00,Wunderground v.1.15,2013-08-29 13:13:00,
2013-08-29 06:14:00,71.3,55.3,29.77,ENE,57,4.0,4.0,57,0.00,,,0.00,Wunderground v.1.15,2013-08-29 13:14:00,
2013-08-29 06:15:00,71.2,54.7,29.77,NNE,28,3.0,6.0,56,0.00,,,0.00,Wunderground v.1.15,2013-08-29 13:15:00,
2013-08-29 06:17:00,71.0,55.0,29.77,NNE,28,0.0,6.0,57,0.00,,,0.00,Wunderground v.1.15,2013-08-29 13:17:00,
2013-08-29 06:19:00,70.9,54.9,29.77,NNE,28,3.0,6.0,57,0.00,,,0.00,Wunderground v.1.15,2013-08-29 13:19:00,
2013-08-29 06:20:00,70.9,54.9,29.77,NNE,28,0.0,2.0,57,0.00,,,0.00,Wunderground v.1.15,2013-08-29 13:20:00,
2013-08-29 06:22:00,70.9,54.4,29.77,NNE,28,2.0,2.0,56,0.00,,,0.00,Wunderground v.1.15,2013-08-29 13:22:00,
2013-08-29 06:23:00,70.8,54.3,29.77,NNE,28,1.0,2.0,56,0.00,,,0.00,Wunderground v.1.15,2013-08-29 13:23:00,
2013-08-29 06:24:00,70.9,54.4,29.77,NNE,28,0.0,2.0,56,0.00,,,0.00,Wunderground v.1.15,2013-08-29 13:24:00,
2013-08-29 06:26:00,70.8,54.3,29.77,NE,42,0.0,5.0,56,0.00,,,0.00,Wunderground v.1.15,2013-08-29 13:26:00,
2013-08-29 06:27:00,70.9,54.4,29.77,NE,42,0.0,5.0,56,0.00,,,0.00,Wunderground v.1.15,2013-08-29 13:27:00,
2013-08-29 06:28:00,70.9,54.4,29.77,NE,42,0.0,5.0,56,0.00,,,0.00,Wunderground v.1.15,2013-08-29 13:28:00,
2013-08-29 06:29:00,70.9,54.4,29.77,NE,42,0.0,5.0,56,0.00,,,0.00,Wunderground v.1.15,2013-08-29 13:29:00,
2013-08-29 06:31:00,70.9,54.4,29.78,NE,42,0.0,1.0,56,0.00,,,0.00,Wunderground v.1.15,2013-08-29 13:31:00,
2013-08-29 06:32:00,70.9,54.4,29.77,NE,47,4.0,5.0,56,0.00,,,0.00,Wunderground v.1.15,2013-08-29 13:32:00,
2013-08-29 06:33:00,70.8,53.8,29.77,NE,53,1.0,5.0,55,0.00,,,0.00,Wunderground v.1.15,2013-08-29 13:33:00,
2013-08-29 06:34:00,70.8,54.3,29.77,ENE,67,7.0,7.0,56,0.00,,,0.00,Wunderground v.1.15,2013-08-29 13:34:00,
2013-08-29 06:36:00,70.8,53.8,29.78,ENE,70,4.0,7.0,55,0.00,,,0.00,Wunderground v.1.15,2013-08-29 13:36:00,
2013-08-29 06:38:00,70.8,53.8,29.78,ENE,75,5.0,7.0,55,0.00,,,0.00,Wunderground v.1.15,2013-08-29 13:38:00,
2013-08-29 06:39:00,70.8,53.8,29.78,East,87,4.0,7.0,55,0.00,,,0.00,Wunderground v.1.15,2013-08-29 13:39:00,
2013-08-29 06:41:00,70.9,53.9,29.78,East,90,5.0,6.0,55,0.00,,,0.00,Wunderground v.1.15,2013-08-29 13:41:00,
2013-08-29 06:43:00,71.1,53.6,29.78,East,90,5.0,6.0,54,0.00,,,0.00,Wunderground v.1.15,2013-08-29 13:43:00,
2013-08-29 06:44:00,71.1,53.6,29.78,East,90,4.0,6.0,54,0.00,,,0.00,Wunderground v.1.15,2013-08-29 13:44:00,
2013-08-29 06:46:00,71.2,53.7,29.78,ENE,76,11.0,13.0,54,0.00,,,0.00,Wunderground v.1.15,2013-08-29 13:46:00,
2013-08-29 06:49:00,71.5,52.9,29.78,East,82,4.0,13.0,52,0.00,,,0.00,Wunderground v.1.15,2013-08-29 13:49:00,
2013-08-29 06:51:00,71.7,53.1,29.78,East,86,6.0,7.0,52,0.00,,,0.00,Wunderground v.1.15,2013-08-29 13:51:00,
2013-08-29 06:54:00,71.8,53.2,29.78,SW,221,8.0,11.0,52,0.00,,,0.00,Wunderground v.1.15,2013-08-29 13:54:00,
2013-08-29 06:56:00,71.9,53.3,29.78,NE,52,10.0,11.0,52,0.00,,,0.00,Wunderground v.1.15,2013-08-29 13:56:00,
2013-08-29 06:59:00,72.0,53.4,29.78,WNW,295,6.0,11.0,52,0.00,,,0.00,Wunderground v.1.15,2013-08-29 13:59:00,
2013-08-29 07:00:00,72.1,53.5,29.78,NW,304,5.0,12.0,52,0.00,,,0.00,Wunderground v.1.15,2013-08-29 14:00:00,
2013-08-29 07:01:00,72.1,54.0,29.78,NNE,12,7.0,7.0,53,0.00,,,0.00,Wunderground v.1.15,2013-08-29 14:01:00,
2013-08-29 07:04:00,72.0,53.4,29.78,NW,325,5.0,10.0,52,0.00,,,0.00,Wunderground v.1.15,2013-08-29 14:04:00,
2013-08-29 07:05:00,72.0,53.4,29.78,NW,323,2.0,10.0,52,0.00,,,0.00,Wunderground v.1.15,2013-08-29 14:05:00,
2013-08-29 07:06:00,72.1,55.0,29.78,NNE,21,1.0,10.0,55,0.00,,,0.00,Wunderground v.1.15,2013-08-29 14:06:00,
2013-08-29 07:09:00,72.2,53.6,29.78,NNE,17,3.0,10.0,52,0.00,,,0.00,Wunderground v.1.15,2013-08-29 14:09:00,
2013-08-29 07:10:00,72.2,53.1,29.78,NNE,24,4.0,10.0,51,0.00,,,0.00,Wunderground v.1.15,2013-08-29 14:10:00,
2013-08-29 07:11:00,72.3,53.2,29.78,ENE,59,10.0,11.0,51,0.00,,,0.00,Wunderground v.1.15,2013-08-29 14:11:00,
2013-08-29 07:15:00,72.7,53.0,29.78,ENE,61,5.0,15.0,50,0.00,,,0.00,Wunderground v.1.15,2013-08-29 14:15:00,
2013-08-29 07:16:00,72.7,53.0,29.78,NE,40,4.0,15.0,50,0.00,,,0.00,Wunderground v.1.15,2013-08-29 14:16:00,
2013-08-29 07:20:00,72.9,54.2,29.78,NW,326,11.0,19.0,52,0.00,,,0.00,Wunderground v.1.15,2013-08-29 14:20:00,
2013-08-29 07:21:00,73.0,52.7,29.78,NNE,15,7.0,14.0,49,0.00,,,0.00,Wunderground v.1.15,2013-08-29 14:21:00,
2013-08-29 07:25:00,73.2,52.9,29.79,NE,34,4.0,14.0,49,0.00,,,0.00,Wunderground v.1.15,2013-08-29 14:25:00,
2013-08-29 07:26:00,73.2,53.4,29.79,NNE,30,5.0,14.0,50,0.00,,,0.00,Wunderground v.1.15,2013-08-29 14:26:00,
2013-08-29 07:30:00,73.1,54.4,29.78,WNW,301,5.0,14.0,52,0.00,,,0.00,Wunderground v.1.15,2013-08-29 14:30:00,
2013-08-29 07:31:00,73.2,53.4,29.78,North,351,11.0,20.0,50,0.00,,,0.00,Wunderground v.1.15,2013-08-29 14:31:00,
2013-08-29 07:32:00,73.2,52.9,29.78,NNW,344,6.0,20.0,49,0.00,,,0.00,Wunderground v.1.15,2013-08-29 14:32:00,
2013-08-29 07:35:00,73.6,53.8,29.78,NNE,17,5.0,20.0,50,0.00,,,0.00,Wunderground v.1.15,2013-08-29 14:35:00,
2013-08-29 07:36:00,73.5,53.7,29.78,NNE,22,5.0,20.0,50,0.00,,,0.00,Wunderground v.1.15,2013-08-29 14:36:00,
2013-08-29 07:37:00,73.5,53.2,29.78,NNE,22,6.0,20.0,49,0.00,,,0.00,Wunderground v.1.15,2013-08-29 14:37:00,
2013-08-29 07:40:00,73.4,53.6,29.78,NNW,346,8.0,20.0,50,0.00,,,0.00,Wunderground v.1.15,2013-08-29 14:40:00,
2013-08-29 07:41:00,73.4,53.6,29.78,NNW,342,10.0,11.0,50,0.00,,,0.00,Wunderground v.1.15,2013-08-29 14:41:00,
2013-08-29 07:42:00,73.4,54.2,29.78,North,355,19.0,23.0,51,0.00,,,0.00,Wunderground v.1.15,2013-08-29 14:42:00,
2013-08-29 07:45:00,73.5,53.2,29.78,NNW,338,9.0,23.0,49,0.00,,,0.00,Wunderground v.1.15,2013-08-29 14:45:00,
2013-08-29 07:46:00,73.4,53.6,29.78,NNE,21,5.0,23.0,50,0.00,,,0.00,Wunderground v.1.15,2013-08-29 14:46:00,
2013-08-29 07:47:00,73.4,55.2,29.78,NNE,28,1.0,23.0,53,0.00,,,0.00,Wunderground v.1.15,2013-08-29 14:47:00,
2013-08-29 07:50:00,73.2,54.5,29.78,NNW,343,2.0,23.0,52,0.00,,,0.00,Wunderground v.1.15,2013-08-29 14:50:00,
2013-08-29 07:51:00,73.2,55.0,29.78,NE,42,4.0,7.0,53,0.00,,,0.00,Wunderground v.1.15,2013-08-29 14:51:00,
2013-08-29 07:52:00,73.0,55.4,29.78,East,82,3.0,7.0,54,0.00,,,0.00,Wunderground v.1.15,2013-08-29 14:52:00,
2013-08-29 07:55:00,72.6,55.5,29.78,East,82,1.0,7.0,55,0.00,,,0.00,Wunderground v.1.15,2013-08-29 14:55:00,
2013-08-29 07:56:00,72.4,55.8,29.79,East,82,0.0,7.0,56,0.00,,,0.00,Wunderground v.1.15,2013-08-29 14:56:00,
2013-08-29 07:57:00,72.2,55.6,29.78,East,82,0.0,7.0,56,0.00,,,0.00,Wunderground v.1.15,2013-08-29 14:57:00,
2013-08-29 08:00:00,72.1,55.5,29.78,East,88,1.0,7.0,56,0.00,,,0.00,Wunderground v.1.15,2013-08-29 15:00:00,
2013-08-29 08:01:00,72.1,55.5,29.78,East,89,1.0,2.0,56,0.00,,,0.00,Wunderground v.1.15,2013-08-29 15:01:00,
2013-08-29 08:03:00,72.1,54.5,29.78,East,90,0.0,2.0,54,0.00,,,0.00,Wunderground v.1.15,2013-08-29 15:03:00,
2013-08-29 08:05:00,72.2,55.1,29.78,ENE,67,0.0,3.0,55,0.00,,,0.00,Wunderground v.1.15,2013-08-29 15:05:00,
2013-08-29 08:06:00,72.3,55.2,29.78,ENE,67,0.0,3.0,55,0.00,,,0.00,Wunderground v.1.15,2013-08-29 15:06:00,
2013-08-29 08:08:00,72.6,57.0,29.78,ENE,66,2.0,3.0,58,0.00,,,0.00,Wunderground v.1.15,2013-08-29 15:08:00,
2013-08-29 08:10:00,72.9,54.2,29.78,North,5,6.0,9.0,52,0.00,,,0.00,Wunderground v.1.15,2013-08-29 15:10:00,
2013-08-29 08:11:00,73.0,54.3,29.78,North,5,8.0,9.0,52,0.00,,,0.00,Wunderground v.1.15,2013-08-29 15:11:00,
2013-08-29 08:12:00,73.1,54.4,29.78,NNW,332,6.0,11.0,52,0.00,,,0.00,Wunderground v.1.15,2013-08-29 15:12:00,
2013-08-29 08:13:00,73.3,54.6,29.78,NNW,348,7.0,14.0,52,0.00,,,0.00,Wunderground v.1.15,2013-08-29 15:13:00,
2013-08-29 08:15:00,73.5,54.8,29.78,NNE,12,5.0,14.0,52,0.00,,,0.00,Wunderground v.1.15,2013-08-29 15:15:00,
2013-08-29 08:16:00,73.5,54.8,29.78,NNE,16,4.0,14.0,52,0.00,,,0.00,Wunderground v.1.15,2013-08-29 15:16:00,
2013-08-29 08:17:00,73.5,55.3,29.78,NNE,19,2.0,14.0,53,0.00,,,0.00,Wunderground v.1.15,2013-08-29 15:17:00,
2013-08-29 08:18:00,73.5,55.8,29.78,NNE,19,0.0,14.0,54,0.00,,,0.00,Wunderground v.1.15,2013-08-29 15:18:00,
2013-08-29 08:20:00,73.5,56.3,29.78,NNW,347,0.0,5.0,55,0.00,,,0.00,Wunderground v.1.15,2013-08-29 15:20:00,
2013-08-29 08:21:00,73.5,56.3,29.78,NNW,347,2.0,5.0,55,0.00,,,0.00,Wunderground v.1.15,2013-08-29 15:21:00,
2013-08-29 08:22:00,73.5,55.3,29.78,NNE,26,2.0,5.0,53,0.00,,,0.00,Wunderground v.1.15,2013-08-29 15:22:00,
2013-08-29 08:23:00,73.5,56.3,29.79,NNE,32,4.0,5.0,55,0.00,,,0.00,Wunderground v.1.15,2013-08-29 15:23:00,
2013-08-29 08:24:00,73.4,56.7,29.79,East,97,6.0,7.0,56,0.00,,,0.00,Wunderground v.1.15,2013-08-29 15:24:00,
2013-08-29 08:25:00,73.1,56.0,29.79,NE,55,2.0,8.0,55,0.00,,,0.00,Wunderground v.1.15,2013-08-29 15:25:00,
2013-08-29 08:26:00,73.2,56.1,29.79,NE,49,4.0,8.0,55,0.00,,,0.00,Wunderground v.1.15,2013-08-29 15:26:00,
2013-08-29 08:27:00,73.3,56.2,29.79,West,275,5.0,8.0,55,0.00,,,0.00,Wunderground v.1.15,2013-08-29 15:27:00,
2013-08-29 08:29:00,73.7,57.5,29.79,NNW,329,11.0,14.0,57,0.00,,,0.00,Wunderground v.1.15,2013-08-29 15:29:00,
2013-08-29 08:30:00,74.0,53.6,29.79,NNW,338,3.0,8.0,49,0.00,,,0.00,Wunderground v.1.15,2013-08-29 15:30:00,
2013-08-29 08:31:00,74.1,53.7,29.79,NE,44,4.0,8.0,49,0.00,,,0.00,Wunderground v.1.15,2013-08-29 15:31:00,
2013-08-29 08:32:00,74.2,53.8,29.79,NE,49,5.0,8.0,49,0.00,,,0.00,Wunderground v.1.15,2013-08-29 15:32:00,
2013-08-29 08:33:00,74.3,53.3,29.79,NNE,32,5.0,10.0,48,0.00,,,0.00,Wunderground v.1.15,2013-08-29 15:33:00,
2013-08-29 08:34:00,74.5,55.7,29.78,NW,319,7.0,10.0,52,0.00,,,0.00,Wunderground v.1.15,2013-08-29 15:34:00,
2013-08-29 08:36:00,74.7,54.3,29.78,NNW,331,5.0,10.0,49,0.00,,,0.00,Wunderground v.1.15,2013-08-29 15:36:00,
2013-08-29 08:37:00,74.7,55.4,29.78,WNW,302,6.0,10.0,51,0.00,,,0.00,Wunderground v.1.15,2013-08-29 15:37:00,
2013-08-29 08:38:00,74.8,56.5,29.78,NW,309,9.0,10.0,53,0.00,,,0.00,Wunderground v.1.15,2013-08-29 15:38:00,
2013-08-29 08:39:00,75.0,54.5,29.78,NW,321,9.0,10.0,49,0.00,,,0.00,Wunderground v.1.15,2013-08-29 15:39:00,
2013-08-29 08:41:00,75.0,54.0,29.78,NNW,336,6.0,6.0,48,0.00,,,0.00,Wunderground v.1.15,2013-08-29 15:41:00,
2013-08-29 08:42:00,75.0,54.0,29.79,NW,325,9.0,9.0,48,0.00,,,0.00,Wunderground v.1.15,2013-08-29 15:42:00,
2013-08-29 08:43:00,75.0,54.0,29.79,NNW,336,5.0,9.0,48,0.00,,,0.00,Wunderground v.1.15,2013-08-29 15:43:00,
2013-08-29 08:44:00,75.1,53.5,29.79,NE,48,5.0,9.0,47,0.00,,,0.00,Wunderground v.1.15,2013-08-29 15:44:00,
2013-08-29 08:46:00,75.0,53.4,29.79,NE,45,3.0,9.0,47,0.00,,,0.00,Wunderground v.1.15,2013-08-29 15:46:00,
2013-08-29 08:47:00,74.9,53.3,29.79,NE,46,1.0,9.0,47,0.00,,,0.00,Wunderground v.1.15,2013-08-29 15:47:00,
2013-08-29 08:48:00,75.0,54.5,29.79,NE,45,2.0,9.0,49,0.00,,,0.00,Wunderground v.1.15,2013-08-29 15:48:00,
2013-08-29 08:50:00,75.0,56.2,29.79,SSW,202,3.0,9.0,52,0.00,,,0.00,Wunderground v.1.15,2013-08-29 15:50:00,
2013-08-29 08:51:00,75.0,56.7,29.79,SSW,213,3.0,5.0,53,0.00,,,0.00,Wunderground v.1.15,2013-08-29 15:51:00,
2013-08-29 08:52:00,74.9,54.4,29.79,SW,215,2.0,5.0,49,0.00,,,0.00,Wunderground v.1.15,2013-08-29 15:52:00,
2013-08-29 08:53:00,75.0,54.5,29.79,SW,215,1.0,5.0,49,0.00,,,0.00,Wunderground v.1.15,2013-08-29 15:53:00,
2013-08-29 08:55:00,74.9,57.1,29.79,SSW,213,3.0,5.0,54,0.00,,,0.00,Wunderground v.1.15,2013-08-29 15:55:00,
2013-08-29 08:56:00,74.8,57.0,29.79,SSW,213,3.0,5.0,54,0.00,,,0.00,Wunderground v.1.15,2013-08-29 15:56:00,
2013-08-29 08:57:00,74.7,57.5,29.79,SSW,209,4.0,5.0,55,0.00,,,0.00,Wunderground v.1.15,2013-08-29 15:57:00,
2013-08-29 08:58:00,74.6,57.9,29.79,SSW,209,1.0,5.0,56,0.00,,,0.00,Wunderground v.1.15,2013-08-29 15:58:00,
2013-08-29 09:00:00,74.3,58.1,29.79,SSW,209,0.0,5.0,57,0.00,,,0.00,Wunderground v.1.15,2013-08-29 16:00:00,
2013-08-29 09:01:00,74.2,58.9,29.79,SSW,209,2.0,3.0,59,0.00,,,0.00,Wunderground v.1.15,2013-08-29 16:01:00,
2013-08-29 09:02:00,74.1,58.9,29.79,SSW,209,0.0,3.0,59,0.00,,,0.00,Wunderground v.1.15,2013-08-29 16:02:00,
2013-08-29 09:03:00,74.0,59.2,29.79,SSW,209,0.0,3.0,60,0.00,,,0.00,Wunderground v.1.15,2013-08-29 16:03:00,
2013-08-29 09:04:00,74.0,59.2,29.79,SSW,209,2.0,3.0,60,0.00,,,0.00,Wunderground v.1.15,2013-08-29 16:04:00,
2013-08-29 09:05:00,73.9,58.7,29.79,SSW,201,4.0,6.0,59,0.00,,,0.00,Wunderground v.1.15,2013-08-29 16:05:00,
2013-08-29 09:06:00,73.9,58.7,29.79,SSW,200,3.0,6.0,59,0.00,,,0.00,Wunderground v.1.15,2013-08-29 16:06:00,
2013-08-29 09:07:00,73.8,59.0,29.79,SSW,200,5.0,6.0,60,0.00,,,0.00,Wunderground v.1.15,2013-08-29 16:07:00,
2013-08-29 09:08:00,73.7,58.9,29.79,SSW,194,4.0,7.0,60,0.00,,,0.00,Wunderground v.1.15,2013-08-29 16:08:00,
2013-08-29 09:09:00,73.6,58.9,29.79,SSW,192,7.0,7.0,60,0.00,,,0.00,Wunderground v.1.15,2013-08-29 16:09:00,
2013-08-29 09:10:00,73.5,58.8,29.79,South,190,4.0,7.0,60,0.00,,,0.00,Wunderground v.1.15,2013-08-29 16:10:00,
2013-08-29 09:11:00,73.5,59.2,29.79,South,190,2.0,4.0,61,0.00,,,0.00,Wunderground v.1.15,2013-08-29 16:11:00,
2013-08-29 09:12:00,73.4,59.1,29.79,South,186,2.0,5.0,61,0.00,,,0.00,Wunderground v.1.15,2013-08-29 16:12:00,
2013-08-29 09:13:00,73.3,59.0,29.79,South,182,4.0,6.0,61,0.00,,,0.00,Wunderground v.1.15,2013-08-29 16:13:00,
2013-08-29 09:14:00,73.3,59.5,29.79,South,182,6.0,6.0,62,0.00,,,0.00,Wunderground v.1.15,2013-08-29 16:14:00,
2013-08-29 09:15:00,73.3,58.6,29.79,South,181,6.0,6.0,60,0.00,,,0.00,Wunderground v.1.15,2013-08-29 16:15:00,
2013-08-29 09:16:00,73.3,58.6,29.79,South,184,6.0,6.0,60,0.00,,,0.00,Wunderground v.1.15,2013-08-29 16:16:00,
2013-08-29 09:17:00,73.4,58.7,29.79,South,183,7.0,8.0,60,0.00,,,0.00,Wunderground v.1.15,2013-08-29 16:17:00,
2013-08-29 09:18:00,73.5,58.8,29.79,South,184,6.0,8.0,60,0.00,,,0.00,Wunderground v.1.15,2013-08-29 16:18:00,
2013-08-29 09:19:00,73.6,57.9,29.79,South,190,6.0,8.0,58,0.00,,,0.00,Wunderground v.1.15,2013-08-29 16:19:00,
2013-08-29 09:21:00,73.8,57.6,29.79,South,186,5.0,7.0,57,0.00,,,0.00,Wunderground v.1.15,2013-08-29 16:21:00,
2013-08-29 09:22:00,74.0,57.3,29.79,South,184,5.0,7.0,56,0.00,,,0.00,Wunderground v.1.15,2013-08-29 16:22:00,
2013-08-29 09:24:00,74.4,58.2,29.79,South,184,2.0,7.0,57,0.00,,,0.00,Wunderground v.1.15,2013-08-29 16:24:00,
2013-08-29 09:26:00,74.7,58.5,29.79,South,186,2.0,7.0,57,0.00,,,0.00,Wunderground v.1.15,2013-08-29 16:26:00,
2013-08-29 09:27:00,74.9,57.1,29.79,South,187,5.0,7.0,54,0.00,,,0.00,Wunderground v.1.15,2013-08-29 16:27:00,
2013-08-29 09:29:00,75.2,56.9,29.80,South,188,3.0,7.0,53,0.00,,,0.00,Wunderground v.1.15,2013-08-29 16:29:00,
2013-08-29 09:31:00,75.4,57.1,29.80,South,190,6.0,7.0,53,0.00,,,0.00,Wunderground v.1.15,2013-08-29 16:31:00,
2013-08-29 09:32:00,75.5,56.1,29.79,South,190,6.0,7.0,51,0.00,,,0.00,Wunderground v.1.15,2013-08-29 16:32:00,
2013-08-29 09:34:00,75.7,56.8,29.80,South,188,6.0,7.0,52,0.00,,,0.00,Wunderground v.1.15,2013-08-29 16:34:00,
2013-08-29 09:35:00,75.8,56.9,29.80,South,189,5.0,7.0,52,0.00,,,0.00,Wunderground v.1.15,2013-08-29 16:35:00,
2013-08-29 09:36:00,75.8,55.8,29.80,South,190,2.0,7.0,50,0.00,,,0.00,Wunderground v.1.15,2013-08-29 16:36:00,
2013-08-29 09:37:00,75.9,55.9,29.80,South,189,5.0,7.0,50,0.00,,,0.00,Wunderground v.1.15,2013-08-29 16:37:00,
2013-08-29 09:39:00,76.0,56.0,29.79,South,182,5.0,7.0,50,0.00,,,0.00,Wunderground v.1.15,2013-08-29 16:39:00,
2013-08-29 09:40:00,76.0,56.0,29.79,South,183,6.0,7.0,50,0.00,,,0.00,Wunderground v.1.15,2013-08-29 16:40:00,
2013-08-29 09:41:00,76.0,56.0,29.79,South,182,3.0,7.0,50,0.00,,,0.00,Wunderground v.1.15,2013-08-29 16:41:00,
2013-08-29 09:42:00,76.1,57.7,29.79,South,178,7.0,7.0,53,0.00,,,0.00,Wunderground v.1.15,2013-08-29 16:42:00,
2013-08-29 09:44:00,76.2,56.2,29.79,South,176,6.0,8.0,50,0.00,,,0.00,Wunderground v.1.15,2013-08-29 16:44:00,
2013-08-29 09:45:00,76.2,56.7,29.79,South,176,4.0,8.0,51,0.00,,,0.00,Wunderground v.1.15,2013-08-29 16:45:00,
2013-08-29 09:46:00,76.2,57.3,29.79,South,175,5.0,8.0,52,0.00,,,0.00,Wunderground v.1.15,2013-08-29 16:46:00,
2013-08-29 09:47:00,76.3,57.9,29.79,South,175,4.0,8.0,53,0.00,,,0.00,Wunderground v.1.15,2013-08-29 16:47:00,
2013-08-29 09:49:00,76.2,56.7,29.79,South,171,4.0,8.0,51,0.00,,,0.00,Wunderground v.1.15,2013-08-29 16:49:00,
2013-08-29 09:50:00,76.1,56.7,29.79,South,172,6.0,8.0,51,0.00,,,0.00,Wunderground v.1.15,2013-08-29 16:50:00,
2013-08-29 09:51:00,76.1,57.2,29.79,South,172,5.0,6.0,52,0.00,,,0.00,Wunderground v.1.15,2013-08-29 16:51:00,
2013-08-29 09:52:00,76.0,58.2,29.79,South,171,5.0,7.0,54,0.00,,,0.00,Wunderground v.1.15,2013-08-29 16:52:00,
2013-08-29 09:55:00,75.9,59.6,29.79,South,173,6.0,7.0,57,0.00,,,0.00,Wunderground v.1.15,2013-08-29 16:55:00,
2013-08-29 09:56:00,75.8,59.0,29.79,South,175,8.0,8.0,56,0.00,,,0.00,Wunderground v.1.15,2013-08-29 16:56:00,
2013-08-29 09:57:00,75.8,59.0,29.79,South,175,6.0,8.0,56,0.00,,,0.00,Wunderground v.1.15,2013-08-29 16:57:00,
2013-08-29 09:58:00,75.7,59.4,29.79,South,175,7.0,8.0,57,0.00,,,0.00,Wunderground v.1.15,2013-08-29 16:58:00,
2013-08-29 10:01:00,75.6,59.8,29.79,South,171,5.0,6.0,58,0.00,,,0.00,Wunderground v.1.15,2013-08-29 17:01:00,
2013-08-29 10:02:00,75.5,59.2,29.79,SSE,168,5.0,8.0,57,0.00,,,0.00,Wunderground v.1.15,2013-08-29 17:02:00,
2013-08-29 10:03:00,75.4,58.6,29.79,SSE,166,8.0,8.0,56,0.00,,,0.00,Wunderground v.1.15,2013-08-29 17:03:00,
2013-08-29 10:06:00,75.4,58.1,29.79,SSE,165,7.0,8.0,55,0.00,,,0.00,Wunderground v.1.15,2013-08-29 17:06:00,
2013-08-29 10:07:00,75.4,58.6,29.79,SSE,164,5.0,8.0,56,0.00,,,0.00,Wunderground v.1.15,2013-08-29 17:07:00,
2013-08-29 10:08:00,75.4,59.1,29.79,SSE,164,6.0,8.0,57,0.00,,,0.00,Wunderground v.1.15,2013-08-29 17:08:00,
2013-08-29 10:11:00,75.4,58.6,29.79,SSE,161,7.0,8.0,56,0.00,,,0.00,Wunderground v.1.15,2013-08-29 17:11:00,
2013-08-29 10:12:00,75.4,59.1,29.79,SSE,161,5.0,8.0,57,0.00,,,0.00,Wunderground v.1.15,2013-08-29 17:12:00,
2013-08-29 10:13:00,75.4,59.1,29.79,SSE,161,5.0,8.0,57,0.00,,,0.00,Wunderground v.1.15,2013-08-29 17:13:00,
2013-08-29 10:16:00,75.4,58.1,29.79,SSE,161,7.0,8.0,55,0.00,,,0.00,Wunderground v.1.15,2013-08-29 17:16:00,
2013-08-29 10:17:00,75.5,58.7,29.79,SSE,160,7.0,8.0,56,0.00,,,0.00,Wunderground v.1.15,2013-08-29 17:17:00,
2013-08-29 10:18:00,75.5,58.7,29.79,SSE,161,6.0,8.0,56,0.00,,,0.00,Wunderground v.1.15,2013-08-29 17:18:00,
2013-08-29 10:19:00,75.5,58.7,29.79,SSE,163,6.0,8.0,56,0.00,,,0.00,Wunderground v.1.15,2013-08-29 17:19:00,
2013-08-29 10:21:00,75.5,58.7,29.79,SSE,163,5.0,8.0,56,0.00,,,0.00,Wunderground v.1.15,2013-08-29 17:21:00,
2013-08-29 10:22:00,75.5,58.7,29.79,SSE,163,7.0,8.0,56,0.00,,,0.00,Wunderground v.1.15,2013-08-29 17:22:00,
2013-08-29 10:23:00,75.5,58.7,29.79,SSE,164,7.0,8.0,56,0.00,,,0.00,Wunderground v.1.15,2013-08-29 17:23:00,
2013-08-29 10:24:00,75.5,58.7,29.79,SSE,166,6.0,8.0,56,0.00,,,0.00,Wunderground v.1.15,2013-08-29 17:24:00,
2013-08-29 10:26:00,75.6,58.3,29.79,SSE,166,2.0,8.0,55,0.00,,,0.00,Wunderground v.1.15,2013-08-29 17:26:00,
2013-08-29 10:27:00,75.6,58.8,29.79,SSE,165,7.0,8.0,56,0.00,,,0.00,Wunderground v.1.15,2013-08-29 17:27:00,
2013-08-29 10:28:00,75.8,59.0,29.79,SSE,166,6.0,8.0,56,0.00,,,0.00,Wunderground v.1.15,2013-08-29 17:28:00,
2013-08-29 10:29:00,75.8,58.5,29.79,SSE,166,5.0,8.0,55,0.00,,,0.00,Wunderground v.1.15,2013-08-29 17:29:00,
2013-08-29 10:31:00,76.1,58.8,29.79,South,171,5.0,7.0,55,0.00,,,0.00,Wunderground v.1.15,2013-08-29 17:31:00,
2013-08-29 10:32:00,76.1,58.8,29.79,South,171,4.0,7.0,55,0.00,,,0.00,Wunderground v.1.15,2013-08-29 17:32:00,
2013-08-29 10:33:00,76.2,58.9,29.79,South,171,0.0,7.0,55,0.00,,,0.00,Wunderground v.1.15,2013-08-29 17:33:00,
2013-08-29 10:34:00,76.3,57.4,29.79,South,174,5.0,7.0,52,0.00,,,0.00,Wunderground v.1.15,2013-08-29 17:34:00,
2013-08-29 10:36:00,76.4,55.8,29.79,SW,221,7.0,8.0,49,0.00,,,0.00,Wunderground v.1.15,2013-08-29 17:36:00,
2013-08-29 10:37:00,76.5,55.3,29.79,SW,222,7.0,8.0,48,0.00,,,0.00,Wunderground v.1.15,2013-08-29 17:37:00,
2013-08-29 10:38:00,76.4,55.3,29.79,SW,224,5.0,8.0,48,0.00,,,0.00,Wunderground v.1.15,2013-08-29 17:38:00,
2013-08-29 10:39:00,76.4,56.4,29.79,SW,226,4.0,8.0,50,0.00,,,0.00,Wunderground v.1.15,2013-08-29 17:39:00,
2013-08-29 10:42:00,76.6,56.6,29.79,SW,229,2.0,6.0,50,0.00,,,0.00,Wunderground v.1.15,2013-08-29 17:42:00,
2013-08-29 10:43:00,76.7,57.2,29.79,SW,229,5.0,6.0,51,0.00,,,0.00,Wunderground v.1.15,2013-08-29 17:43:00,
2013-08-29 10:44:00,76.7,55.5,29.79,SW,230,5.0,8.0,48,0.00,,,0.00,Wunderground v.1.15,2013-08-29 17:44:00,
2013-08-29 10:47:00,76.6,56.0,29.80,SW,230,5.0,8.0,49,0.00,,,0.00,Wunderground v.1.15,2013-08-29 17:47:00,
2013-08-29 10:48:00,76.6,56.0,29.80,SW,230,6.0,8.0,49,0.00,,,0.00,Wunderground v.1.15,2013-08-29 17:48:00,
2013-08-29 10:49:00,76.7,56.7,29.79,SW,234,4.0,8.0,50,0.00,,,0.00,Wunderground v.1.15,2013-08-29 17:49:00,
2013-08-29 10:52:00,76.9,55.7,29.79,SW,235,5.0,7.0,48,0.00,,,0.00,Wunderground v.1.15,2013-08-29 17:52:00,
2013-08-29 10:53:00,76.9,56.3,29.79,SW,235,4.0,7.0,49,0.00,,,0.00,Wunderground v.1.15,2013-08-29 17:53:00,
2013-08-29 10:55:00,76.8,55.0,29.79,SW,235,3.0,7.0,47,0.00,,,0.00,Wunderground v.1.15,2013-08-29 17:55:00,
2013-08-29 10:57:00,76.9,56.3,29.79,SW,235,0.0,7.0,49,0.00,,,0.00,Wunderground v.1.15,2013-08-29 17:57:00,
2013-08-29 10:58:00,77.0,55.8,29.79,SW,235,6.0,7.0,48,0.00,,,0.00,Wunderground v.1.15,2013-08-29 17:58:00,
2013-08-29 10:59:00,77.1,55.9,29.79,SW,235,5.0,7.0,48,0.00,,,0.00,Wunderground v.1.15,2013-08-29 17:59:00,
2013-08-29 11:00:00,77.1,54.7,29.79,SW,235,1.0,7.0,46,0.00,,,0.00,Wunderground v.1.15,2013-08-29 18:00:00,
2013-08-29 11:02:00,77.1,54.7,29.79,SW,234,0.0,4.0,46,0.00,,,0.00,Wunderground v.1.15,2013-08-29 18:02:00,
2013-08-29 11:03:00,77.1,54.1,29.79,SW,234,4.0,5.0,45,0.00,,,0.00,Wunderground v.1.15,2013-08-29 18:03:00,
2013-08-29 11:04:00,77.1,54.7,29.79,SW,235,5.0,5.0,46,0.00,,,0.00,Wunderground v.1.15,2013-08-29 18:04:00,
2013-08-29 11:05:00,77.2,55.4,29.79,SW,234,1.0,5.0,47,0.00,,,0.00,Wunderground v.1.15,2013-08-29 18:05:00,
2013-08-29 11:07:00,77.2,54.8,29.79,SW,235,2.0,5.0,46,0.00,,,0.00,Wunderground v.1.15,2013-08-29 18:07:00,
2013-08-29 11:08:00,77.1,55.3,29.79,SW,235,3.0,5.0,47,0.00,,,0.00,Wunderground v.1.15,2013-08-29 18:08:00,
2013-08-29 11:09:00,77.2,56.0,29.79,SW,235,4.0,5.0,48,0.00,,,0.00,Wunderground v.1.15,2013-08-29 18:09:00,
2013-08-29 11:10:00,77.2,56.0,29.79,SW,234,2.0,3.0,48,0.00,,,0.00,Wunderground v.1.15,2013-08-29 18:10:00,
2013-08-29 11:12:00,77.2,56.6,29.79,SW,235,6.0,7.0,49,0.00,,,0.00,Wunderground v.1.15,2013-08-29 18:12:00,
2013-08-29 11:13:00,77.2,56.0,29.79,SW,235,2.0,7.0,48,0.00,,,0.00,Wunderground v.1.15,2013-08-29 18:13:00,
2013-08-29 11:14:00,77.1,55.3,29.79,SW,235,3.0,7.0,47,0.00,,,0.00,Wunderground v.1.15,2013-08-29 18:14:00,
2013-08-29 11:15:00,77.2,55.4,29.79,SW,235,3.0,7.0,47,0.00,,,0.00,Wunderground v.1.15,2013-08-29 18:15:00,
2013-08-29 11:17:00,77.2,56.6,29.80,SW,235,2.0,7.0,49,0.00,,,0.00,Wunderground v.1.15,2013-08-29 18:17:00,
2013-08-29 11:18:00,77.3,56.6,29.80,SW,235,1.0,7.0,49,0.00,,,0.00,Wunderground v.1.15,2013-08-29 18:18:00,
2013-08-29 11:19:00,77.3,56.6,29.80,SW,235,4.0,7.0,49,0.00,,,0.00,Wunderground v.1.15,2013-08-29 18:19:00,
2013-08-29 11:21:00,77.4,55.6,29.80,SW,234,8.0,8.0,47,0.00,,,0.00,Wunderground v.1.15,2013-08-29 18:21:00,
2013-08-29 11:22:00,77.3,55.5,29.80,SW,236,5.0,8.0,47,0.00,,,0.00,Wunderground v.1.15,2013-08-29 18:22:00,
2013-08-29 11:23:00,77.4,58.4,29.80,SW,236,6.0,8.0,52,0.00,,,0.00,Wunderground v.1.15,2013-08-29 18:23:00,
2013-08-29 11:24:00,77.4,56.2,29.80,SW,236,5.0,8.0,48,0.00,,,0.00,Wunderground v.1.15,2013-08-29 18:24:00,
2013-08-29 11:26:00,77.3,55.5,29.80,WSW,237,8.0,9.0,47,0.00,,,0.00,Wunderground v.1.15,2013-08-29 18:26:00,
2013-08-29 11:27:00,77.2,55.4,29.80,WSW,237,6.0,9.0,47,0.00,,,0.00,Wunderground v.1.15,2013-08-29 18:27:00,
2013-08-29 11:28:00,77.1,57.0,29.80,WSW,238,4.0,9.0,50,0.00,,,0.00,Wunderground v.1.15,2013-08-29 18:28:00,
2013-08-29 11:29:00,77.1,55.9,29.80,WSW,238,2.0,9.0,48,0.00,,,0.00,Wunderground v.1.15,2013-08-29 18:29:00,
2013-08-29 11:31:00,77.2,57.7,29.80,WSW,238,2.0,5.0,51,0.00,,,0.00,Wunderground v.1.15,2013-08-29 18:31:00,
2013-08-29 11:32:00,77.3,57.2,29.80,WSW,238,2.0,5.0,50,0.00,,,0.00,Wunderground v.1.15,2013-08-29 18:32:00,
2013-08-29 11:33:00,77.5,57.4,29.80,WSW,239,5.0,5.0,50,0.00,,,0.00,Wunderground v.1.15,2013-08-29 18:33:00,
2013-08-29 11:34:00,77.7,58.1,29.80,WSW,239,6.0,6.0,51,0.00,,,0.00,Wunderground v.1.15,2013-08-29 18:34:00,
2013-08-29 11:36:00,78.0,58.4,29.80,WSW,240,6.0,10.0,51,0.00,,,0.00,Wunderground v.1.15,2013-08-29 18:36:00,
2013-08-29 11:37:00,78.0,58.4,29.80,WSW,240,5.0,10.0,51,0.00,,,0.00,Wunderground v.1.15,2013-08-29 18:37:00,
2013-08-29 11:38:00,78.0,57.9,29.80,WSW,238,5.0,10.0,50,0.00,,,0.00,Wunderground v.1.15,2013-08-29 18:38:00,
2013-08-29 11:39:00,77.9,57.2,29.80,SW,235,8.0,10.0,49,0.00,,,0.00,Wunderground v.1.15,2013-08-29 18:39:00,
2013-08-29 11:41:00,77.7,57.0,29.80,SW,235,5.0,9.0,49,0.00,,,0.00,Wunderground v.1.15,2013-08-29 18:41:00,
2013-08-29 11:42:00,77.6,57.5,29.80,SW,235,5.0,9.0,50,0.00,,,0.00,Wunderground v.1.15,2013-08-29 18:42:00,
2013-08-29 11:43:00,77.6,56.9,29.80,SW,234,9.0,9.0,49,0.00,,,0.00,Wunderground v.1.15,2013-08-29 18:43:00,
2013-08-29 11:44:00,77.6,57.5,29.80,WSW,244,7.0,9.0,50,0.00,,,0.00,Wunderground v.1.15,2013-08-29 18:44:00,
2013-08-29 11:46:00,77.5,56.8,29.80,WSW,242,7.0,10.0,49,0.00,,,0.00,Wunderground v.1.15,2013-08-29 18:46:00,
2013-08-29 11:47:00,77.5,57.4,29.80,WSW,240,7.0,10.0,50,0.00,,,0.00,Wunderground v.1.15,2013-08-29 18:47:00,
2013-08-29 11:48:00,77.6,57.5,29.80,SW,227,7.0,10.0,50,0.00,,,0.00,Wunderground v.1.15,2013-08-29 18:48:00,
2013-08-29 11:49:00,77.6,57.5,29.80,SW,227,4.0,10.0,50,0.00,,,0.00,Wunderground v.1.15,2013-08-29 18:49:00,
2013-08-29 11:50:00,77.7,56.4,29.80,SW,223,6.0,10.0,48,0.00,,,0.00,Wunderground v.1.15,2013-08-29 18:50:00,
2013-08-29 11:52:00,78.0,57.9,29.80,SW,223,4.0,7.0,50,0.00,,,0.00,Wunderground v.1.15,2013-08-29 18:52:00,
2013-08-29 11:53:00,78.2,56.3,29.80,SW,223,5.0,11.0,47,0.00,,,0.00,Wunderground v.1.15,2013-08-29 18:53:00,
2013-08-29 11:54:00,78.2,56.9,29.79,SW,223,6.0,11.0,48,0.00,,,0.00,Wunderground v.1.15,2013-08-29 18:54:00,
2013-08-29 11:55:00,78.2,56.3,29.80,SW,225,7.0,11.0,47,0.00,,,0.00,Wunderground v.1.15,2013-08-29 18:55:00,
2013-08-29 11:57:00,78.3,57.6,29.80,WSW,240,5.0,11.0,49,0.00,,,0.00,Wunderground v.1.15,2013-08-29 18:57:00,
2013-08-29 11:58:00,78.4,56.5,29.80,WSW,240,8.0,11.0,47,0.00,,,0.00,Wunderground v.1.15,2013-08-29 18:58:00,
2013-08-29 11:59:00,78.4,56.5,29.80,WSW,242,8.0,11.0,47,0.00,,,0.00,Wunderground v.1.15,2013-08-29 18:59:00,
2013-08-29 12:00:00,78.4,55.9,29.79,WSW,242,5.0,11.0,46,0.00,,,0.00,Wunderground v.1.15,2013-08-29 19:00:00,
2013-08-29 12:02:00,78.4,55.3,29.79,WSW,242,2.0,6.0,45,0.00,,,0.00,Wunderground v.1.15,2013-08-29 19:02:00,
2013-08-29 12:03:00,78.6,56.7,29.79,WSW,242,3.0,6.0,47,0.00,,,0.00,Wunderground v.1.15,2013-08-29 19:03:00,
2013-08-29 12:04:00,78.7,56.8,29.79,WSW,242,1.0,6.0,47,0.00,,,0.00,Wunderground v.1.15,2013-08-29 19:04:00,
2013-08-29 12:05:00,78.8,56.3,29.79,WSW,242,0.0,6.0,46,0.00,,,0.00,Wunderground v.1.15,2013-08-29 19:05:00,
2013-08-29 12:07:00,79.0,55.8,29.79,WSW,242,3.0,6.0,45,0.00,,,0.00,Wunderground v.1.15,2013-08-29 19:07:00,
2013-08-29 12:08:00,79.0,55.8,29.79,WSW,242,2.0,6.0,45,0.00,,,0.00,Wunderground v.1.15,2013-08-29 19:08:00,
2013-08-29 12:09:00,79.0,55.8,29.79,WSW,242,3.0,6.0,45,0.00,,,0.00,Wunderground v.1.15,2013-08-29 19:09:00,
2013-08-29 12:10:00,79.0,55.8,29.79,WSW,242,2.0,6.0,45,0.00,,,0.00,Wunderground v.1.15,2013-08-29 19:10:00,
2013-08-29 12:12:00,79.1,55.9,29.79,WSW,238,7.0,7.0,45,0.00,,,0.00,Wunderground v.1.15,2013-08-29 19:12:00,
2013-08-29 12:13:00,79.3,56.1,29.79,SW,236,2.0,7.0,45,0.00,,,0.00,Wunderground v.1.15,2013-08-29 19:13:00,
2013-08-29 12:14:00,79.3,56.1,29.79,SW,236,5.0,7.0,45,0.00,,,0.00,Wunderground v.1.15,2013-08-29 19:14:00,
2013-08-29 12:15:00,79.4,56.2,29.80,SW,236,2.0,7.0,45,0.00,,,0.00,Wunderground v.1.15,2013-08-29 19:15:00,
2013-08-29 12:16:00,79.4,55.6,29.80,SW,234,5.0,7.0,44,0.00,,,0.00,Wunderground v.1.15,2013-08-29 19:16:00,
2013-08-29 12:17:00,79.6,55.8,29.80,SW,232,2.0,7.0,44,0.00,,,0.00,Wunderground v.1.15,2013-08-29 19:17:00,
2013-08-29 12:18:00,79.6,55.8,29.80,SW,232,2.0,7.0,44,0.00,,,0.00,Wunderground v.1.15,2013-08-29 19:18:00,
2013-08-29 12:19:00,79.7,55.9,29.80,SW,229,7.0,8.0,44,0.00,,,0.00,Wunderground v.1.15,2013-08-29 19:19:00,
2013-08-29 12:20:00,79.7,57.1,29.80,SW,226,7.0,7.0,46,0.00,,,0.00,Wunderground v.1.15,2013-08-29 19:20:00,
2013-08-29 12:21:00,79.8,57.2,29.80,SW,225,4.0,7.0,46,0.00,,,0.00,Wunderground v.1.15,2013-08-29 19:21:00,
2013-08-29 12:22:00,79.8,55.9,29.80,SSW,213,4.0,8.0,44,0.00,,,0.00,Wunderground v.1.15,2013-08-29 19:22:00,
2013-08-29 12:23:00,79.8,55.9,29.80,SSW,213,4.0,8.0,44,0.00,,,0.00,Wunderground v.1.15,2013-08-29 19:23:00,
2013-08-29 12:24:00,80.0,56.1,29.80,SSW,213,4.0,8.0,44,0.00,,,0.00,Wunderground v.1.15,2013-08-29 19:24:00,
2013-08-29 12:25:00,80.0,56.7,29.80,SSW,213,4.0,8.0,45,0.00,,,0.00,Wunderground v.1.15,2013-08-29 19:25:00,
2013-08-29 12:27:00,80.2,56.3,29.79,SSW,211,5.0,10.0,44,0.00,,,0.00,Wunderground v.1.15,2013-08-29 19:27:00,
2013-08-29 12:28:00,80.2,56.3,29.79,SSW,211,6.0,10.0,44,0.00,,,0.00,Wunderground v.1.15,2013-08-29 19:28:00,
2013-08-29 12:29:00,80.1,55.6,29.80,SSW,212,4.0,10.0,43,0.00,,,0.00,Wunderground v.1.15,2013-08-29 19:29:00,
2013-08-29 12:30:00,80.0,56.7,29.79,South,190,6.0,7.0,45,0.00,,,0.00,Wunderground v.1.15,2013-08-29 19:30:00,
2013-08-29 12:31:00,80.0,56.1,29.79,South,190,4.0,7.0,44,0.00,,,0.00,Wunderground v.1.15,2013-08-29 19:31:00,
2013-08-29 12:32:00,80.1,56.2,29.80,South,189,6.0,10.0,44,0.00,,,0.00,Wunderground v.1.15,2013-08-29 19:32:00,
2013-08-29 12:33:00,80.2,56.3,29.79,South,190,6.0,10.0,44,0.00,,,0.00,Wunderground v.1.15,2013-08-29 19:33:00,
2013-08-29 12:34:00,80.2,56.3,29.79,South,189,2.0,10.0,44,0.00,,,0.00,Wunderground v.1.15,2013-08-29 19:34:00,
2013-08-29 12:35:00,80.3,55.8,29.80,South,190,5.0,10.0,43,0.00,,,0.00,Wunderground v.1.15,2013-08-29 19:35:00,
2013-08-29 12:36:00,80.3,55.8,29.80,South,190,5.0,10.0,43,0.00,,,0.00,Wunderground v.1.15,2013-08-29 19:36:00,
2013-08-29 12:37:00,80.4,55.9,29.80,South,188,5.0,10.0,43,0.00,,,0.00,Wunderground v.1.15,2013-08-29 19:37:00,
2013-08-29 12:38:00,80.4,55.2,29.80,South,188,3.0,10.0,42,0.00,,,0.00,Wunderground v.1.15,2013-08-29 19:38:00,
2013-08-29 12:39:00,80.5,55.3,29.80,South,188,1.0,10.0,42,0.00,,,0.00,Wunderground v.1.15,2013-08-29 19:39:00,
2013-08-29 12:41:00,80.6,56.0,29.80,South,188,0.0,5.0,43,0.00,,,0.00,Wunderground v.1.15,2013-08-29 19:41:00,
2013-08-29 12:42:00,80.8,56.9,29.79,SSW,203,4.0,7.0,44,0.00,,,0.00,Wunderground v.1.15,2013-08-29 19:42:00,
2013-08-29 12:43:00,80.9,55.7,29.79,SSW,203,1.0,7.0,42,0.00,,,0.00,Wunderground v.1.15,2013-08-29 19:43:00,
2013-08-29 12:44:00,80.9,55.7,29.80,SSW,203,2.0,7.0,42,0.00,,,0.00,Wunderground v.1.15,2013-08-29 19:44:00,
2013-08-29 12:46:00,81.1,56.5,29.80,SSW,203,2.0,7.0,43,0.00,,,0.00,Wunderground v.1.15,2013-08-29 19:46:00,
2013-08-29 12:47:00,81.2,56.6,29.80,SSW,203,3.0,7.0,43,0.00,,,0.00,Wunderground v.1.15,2013-08-29 19:47:00,
2013-08-29 12:49:00,81.2,56.6,29.80,SSW,203,4.0,9.0,43,0.00,,,0.00,Wunderground v.1.15,2013-08-29 19:49:00,
2013-08-29 12:51:00,81.1,56.5,29.81,SSW,198,7.0,9.0,43,0.00,,,0.00,Wunderground v.1.15,2013-08-29 19:51:00,
2013-08-29 12:52:00,80.9,56.9,29.80,SSW,200,5.0,9.0,44,0.00,,,0.00,Wunderground v.1.15,2013-08-29 19:52:00,
2013-08-29 12:54:00,80.8,56.2,29.81,SSW,200,3.0,9.0,43,0.00,,,0.00,Wunderground v.1.15,2013-08-29 19:54:00,
2013-08-29 12:55:00,80.6,56.7,29.81,SSW,200,4.0,9.0,44,0.00,,,0.00,Wunderground v.1.15,2013-08-29 19:55:00,
2013-08-29 12:56:00,80.3,57.0,29.82,SSW,213,9.0,10.0,45,0.00,,,0.00,Wunderground v.1.15,2013-08-29 19:56:00,
2013-08-29 12:57:00,80.2,56.9,29.82,SW,214,7.0,10.0,45,0.00,,,0.00,Wunderground v.1.15,2013-08-29 19:57:00,
2013-08-29 12:58:00,79.9,56.7,29.82,SW,226,10.0,11.0,45,0.00,,,0.00,Wunderground v.1.15,2013-08-29 19:58:00,
2013-08-29 12:59:00,79.6,55.8,29.82,SW,228,12.0,12.0,44,0.00,,,0.00,Wunderground v.1.15,2013-08-29 19:59:00,
2013-08-29 13:00:00,79.3,56.1,29.83,WSW,240,13.0,15.0,45,0.00,,,0.00,Wunderground v.1.15,2013-08-29 20:00:00,
2013-08-29 13:02:00,79.1,59.4,29.83,West,275,16.0,19.0,51,0.00,,,0.00,Wunderground v.1.15,2013-08-29 20:02:00,
2013-08-29 13:03:00,78.8,60.2,29.83,West,281,13.0,19.0,53,0.00,,,0.00,Wunderground v.1.15,2013-08-29 20:03:00,
2013-08-29 13:04:00,78.1,61.1,29.83,West,272,9.0,19.0,56,0.00,,,0.00,Wunderground v.1.15,2013-08-29 20:04:00,
2013-08-29 13:05:00,77.6,61.7,29.83,West,270,15.0,21.0,58,0.00,,,0.00,Wunderground v.1.15,2013-08-29 20:05:00,
2013-08-29 13:07:00,75.8,60.0,29.83,West,277,17.0,22.0,58,0.00,,,0.00,Wunderground v.1.15,2013-08-29 20:07:00,
2013-08-29 13:08:00,75.3,60.9,29.83,WNW,286,15.0,22.0,61,0.00,,,0.00,Wunderground v.1.15,2013-08-29 20:08:00,
2013-08-29 13:09:00,75.0,60.6,29.83,West,279,19.0,22.0,61,0.00,,,0.00,Wunderground v.1.15,2013-08-29 20:09:00,
2013-08-29 13:10:00,74.7,59.9,29.83,West,280,17.0,22.0,60,0.00,,,0.00,Wunderground v.1.15,2013-08-29 20:10:00,
2013-08-29 13:12:00,74.9,63.2,29.83,WNW,295,11.0,15.0,67,0.00,,,0.00,Wunderground v.1.15,2013-08-29 20:12:00,
2013-08-29 13:13:00,75.1,62.5,29.83,NW,309,11.0,15.0,65,0.00,,,0.00,Wunderground v.1.15,2013-08-29 20:13:00,
2013-08-29 13:14:00,75.2,64.3,29.83,WNW,300,18.0,22.0,69,0.00,,,0.00,Wunderground v.1.15,2013-08-29 20:14:00,
2013-08-29 13:15:00,74.9,61.0,29.83,WNW,301,16.0,24.0,62,0.00,,,0.00,Wunderground v.1.15,2013-08-29 20:15:00,
2013-08-29 13:16:00,74.4,61.4,29.83,WNW,303,10.0,24.0,64,0.00,,,0.00,Wunderground v.1.15,2013-08-29 20:16:00,
2013-08-29 13:17:00,74.0,61.5,29.83,NW,317,14.0,24.0,65,0.00,,,0.00,Wunderground v.1.15,2013-08-29 20:17:00,
2013-08-29 13:18:00,73.7,62.1,29.83,NW,319,15.0,24.0,67,0.00,,,0.00,Wunderground v.1.15,2013-08-29 20:18:00,
2013-08-29 13:19:00,73.3,61.7,29.83,NW,309,13.0,24.0,67,0.00,,,0.00,Wunderground v.1.15,2013-08-29 20:19:00,
2013-08-29 13:20:00,73.2,61.6,29.83,WNW,302,10.0,24.0,67,0.00,,,0.00,Wunderground v.1.15,2013-08-29 20:20:00,
2013-08-29 13:21:00,72.9,61.7,29.83,NW,304,16.0,17.0,68,0.00,,,0.00,Wunderground v.1.15,2013-08-29 20:21:00,
2013-08-29 13:22:00,72.8,61.6,29.83,NW,315,15.0,18.0,68,0.00,,,0.00,Wunderground v.1.15,2013-08-29 20:22:00,
2013-08-29 13:23:00,72.7,61.5,29.83,NW,306,16.0,18.0,68,0.00,,,0.00,Wunderground v.1.15,2013-08-29 20:23:00,
2013-08-29 13:24:00,72.7,61.9,29.83,NW,309,14.0,18.0,69,0.00,,,0.00,Wunderground v.1.15,2013-08-29 20:24:00,
2013-08-29 13:25:00,72.6,61.8,29.83,NW,323,14.0,18.0,69,0.00,,,0.00,Wunderground v.1.15,2013-08-29 20:25:00,
2013-08-29 13:27:00,72.5,62.6,29.83,NNW,327,16.0,18.0,71,0.00,,,0.00,Wunderground v.1.15,2013-08-29 20:27:00,
2013-08-29 13:28:00,72.2,60.2,29.83,NNW,327,13.0,19.0,66,0.00,,,0.00,Wunderground v.1.15,2013-08-29 20:28:00,
2013-08-29 13:29:00,72.1,60.5,29.83,NW,325,11.0,19.0,67,0.00,,,0.00,Wunderground v.1.15,2013-08-29 20:29:00,
2013-08-29 13:30:00,72.1,61.4,29.83,NW,317,9.0,19.0,69,0.00,,,0.00,Wunderground v.1.15,2013-08-29 20:30:00,
2013-08-29 13:32:00,72.1,61.4,29.83,NW,321,16.0,20.0,69,0.00,,,0.00,Wunderground v.1.15,2013-08-29 20:32:00,
2013-08-29 13:33:00,72.1,61.0,29.83,NNW,327,15.0,20.0,68,0.00,,,0.00,Wunderground v.1.15,2013-08-29 20:33:00,
2013-08-29 13:34:00,72.1,61.0,29.83,NNW,327,18.0,20.0,68,0.00,,,0.00,Wunderground v.1.15,2013-08-29 20:34:00,
2013-08-29 13:35:00,72.2,60.6,29.83,NW,320,12.0,20.0,67,0.00,,,0.00,Wunderground v.1.15,2013-08-29 20:35:00,
2013-08-29 13:37:00,72.6,61.4,29.83,NW,319,13.0,20.0,68,0.00,,,0.00,Wunderground v.1.15,2013-08-29 20:37:00,
2013-08-29 13:38:00,72.9,61.3,29.83,NW,317,14.0,20.0,67,0.00,,,0.00,Wunderground v.1.15,2013-08-29 20:38:00,
2013-08-29 13:39:00,73.3,60.8,29.83,NW,318,14.0,20.0,65,0.00,,,0.00,Wunderground v.1.15,2013-08-29 20:39:00,
2013-08-29 13:40:00,73.4,60.0,29.83,NNW,330,14.0,20.0,63,0.00,,,0.00,Wunderground v.1.15,2013-08-29 20:40:00,
2013-08-29 13:42:00,73.7,60.8,29.83,NW,312,13.0,17.0,64,0.00,,,0.00,Wunderground v.1.15,2013-08-29 20:42:00,
2013-08-29 13:43:00,73.8,60.4,29.84,NW,324,12.0,17.0,63,0.00,,,0.00,Wunderground v.1.15,2013-08-29 20:43:00,
2013-08-29 13:44:00,74.1,62.0,29.84,NW,322,11.0,17.0,66,0.00,,,0.00,Wunderground v.1.15,2013-08-29 20:44:00,
2013-08-29 13:45:00,74.5,60.6,29.84,NNW,329,10.0,18.0,62,0.00,,,0.00,Wunderground v.1.15,2013-08-29 20:45:00,
2013-08-29 13:47:00,74.7,60.4,29.84,NNW,337,10.0,18.0,61,0.00,,,0.00,Wunderground v.1.15,2013-08-29 20:47:00,
2013-08-29 13:48:00,74.8,60.9,29.84,NNW,346,14.0,18.0,62,0.00,,,0.00,Wunderground v.1.15,2013-08-29 20:48:00,
2013-08-29 13:49:00,74.9,60.1,29.84,NNW,338,15.0,18.0,60,0.00,,,0.00,Wunderground v.1.15,2013-08-29 20:49:00,
2013-08-29 13:50:00,75.0,60.2,29.84,NW,324,12.0,18.0,60,0.00,,,0.00,Wunderground v.1.15,2013-08-29 20:50:00,
2013-08-29 13:52:00,74.9,59.6,29.84,NNW,339,17.0,20.0,59,0.00,,,0.00,Wunderground v.1.15,2013-08-29 20:52:00,
2013-08-29 13:53:00,74.9,59.1,29.84,NNW,327,11.0,20.0,58,0.00,,,0.00,Wunderground v.1.15,2013-08-29 20:53:00,
2013-08-29 13:54:00,75.0,61.1,29.84,NNW,327,12.0,20.0,62,0.00,,,0.00,Wunderground v.1.15,2013-08-29 20:54:00,
2013-08-29 13:55:00,75.3,61.4,29.84,NW,325,9.0,20.0,62,0.00,,,0.00,Wunderground v.1.15,2013-08-29 20:55:00,
2013-08-29 13:57:00,75.9,61.0,29.83,NW,313,10.0,20.0,60,0.00,,,0.00,Wunderground v.1.15,2013-08-29 20:57:00,
2013-08-29 13:58:00,76.3,60.9,29.83,NNW,334,9.0,20.0,59,0.00,,,0.00,Wunderground v.1.15,2013-08-29 20:58:00,
2013-08-29 13:59:00,76.3,60.9,29.83,NW,311,9.0,20.0,59,0.00,,,0.00,Wunderground v.1.15,2013-08-29 20:59:00,
2013-08-29 14:00:00,76.3,61.4,29.83,NW,319,9.0,12.0,60,0.00,,,0.00,Wunderground v.1.15,2013-08-29 21:00:00,
2013-08-29 14:02:00,76.1,59.3,29.83,NNW,333,12.0,16.0,56,0.00,,,0.00,Wunderground v.1.15,2013-08-29 21:02:00,
2013-08-29 14:04:00,76.0,60.6,29.83,NNW,328,7.0,16.0,59,0.00,,,0.00,Wunderground v.1.15,2013-08-29 21:04:00,
2013-08-29 14:05:00,76.0,61.1,29.83,NW,323,8.0,16.0,60,0.00,,,0.00,Wunderground v.1.15,2013-08-29 21:05:00,
2013-08-29 14:08:00,76.3,60.4,29.84,NNW,342,11.0,16.0,58,0.00,,,0.00,Wunderground v.1.15,2013-08-29 21:08:00,
2013-08-29 14:09:00,76.4,60.5,29.83,NNW,338,13.0,16.0,58,0.00,,,0.00,Wunderground v.1.15,2013-08-29 21:09:00,
2013-08-29 14:10:00,76.5,59.1,29.83,NW,310,10.0,10.0,55,0.00,,,0.00,Wunderground v.1.15,2013-08-29 21:10:00,
2013-08-29 14:14:00,77.0,59.6,29.84,NNW,338,11.0,12.0,55,0.00,,,0.00,Wunderground v.1.15,2013-08-29 21:14:00,
2013-08-29 14:15:00,77.3,61.4,29.84,NNW,327,7.0,12.0,58,0.00,,,0.00,Wunderground v.1.15,2013-08-29 21:15:00,
2013-08-29 14:19:00,77.5,59.5,29.84,WNW,300,7.0,13.0,54,0.00,,,0.00,Wunderground v.1.15,2013-08-29 21:19:00,
2013-08-29 14:20:00,77.8,62.3,29.84,NW,319,6.0,13.0,59,0.00,,,0.00,Wunderground v.1.15,2013-08-29 21:20:00,
2013-08-29 14:24:00,78.6,61.1,29.84,NW,309,10.0,11.0,55,0.00,,,0.00,Wunderground v.1.15,2013-08-29 21:24:00,
2013-08-29 14:25:00,78.6,59.5,29.84,NW,321,7.0,11.0,52,0.00,,,0.00,Wunderground v.1.15,2013-08-29 21:25:00,
2013-08-29 14:26:00,78.6,59.5,29.84,NW,316,6.0,11.0,52,0.00,,,0.00,Wunderground v.1.15,2013-08-29 21:26:00,
2013-08-29 14:29:00,79.0,63.9,29.84,WNW,299,6.0,11.0,60,0.00,,,0.00,Wunderground v.1.15,2013-08-29 21:29:00,
2013-08-29 14:30:00,79.3,62.2,29.84,WNW,298,4.0,7.0,56,0.00,,,0.00,Wunderground v.1.15,2013-08-29 21:30:00,
2013-08-29 14:31:00,79.3,62.2,29.84,WNW,298,5.0,7.0,56,0.00,,,0.00,Wunderground v.1.15,2013-08-29 21:31:00,
2013-08-29 14:34:00,79.6,57.6,29.84,WNW,287,5.0,9.0,47,0.00,,,0.00,Wunderground v.1.15,2013-08-29 21:34:00,
2013-08-29 14:36:00,79.5,56.3,29.84,West,278,5.0,9.0,45,0.00,,,0.00,Wunderground v.1.15,2013-08-29 21:36:00,
2013-08-29 14:39:00,79.7,58.8,29.84,WSW,250,2.0,11.0,49,0.00,,,0.00,Wunderground v.1.15,2013-08-29 21:39:00,
2013-08-29 14:41:00,79.7,57.1,29.84,West,262,4.0,6.0,46,0.00,,,0.00,Wunderground v.1.15,2013-08-29 21:41:00,
2013-08-29 14:44:00,79.8,58.9,29.84,West,262,7.0,10.0,49,0.00,,,0.00,Wunderground v.1.15,2013-08-29 21:44:00,
2013-08-29 14:45:00,79.9,58.5,29.84,WSW,246,7.0,10.0,48,0.00,,,0.00,Wunderground v.1.15,2013-08-29 21:45:00,
2013-08-29 14:46:00,79.9,59.0,29.84,West,267,8.0,10.0,49,0.00,,,0.00,Wunderground v.1.15,2013-08-29 21:46:00,
2013-08-29 14:49:00,79.6,58.8,29.84,WNW,282,10.0,11.0,49,0.00,,,0.00,Wunderground v.1.15,2013-08-29 21:49:00,
2013-08-29 14:50:00,79.5,59.2,29.84,West,265,8.0,11.0,50,0.00,,,0.00,Wunderground v.1.15,2013-08-29 21:50:00,
2013-08-29 14:51:00,79.4,58.0,29.84,West,259,7.0,10.0,48,0.00,,,0.00,Wunderground v.1.15,2013-08-29 21:51:00,
2013-08-29 14:52:00,79.3,60.1,29.84,WSW,251,6.0,11.0,52,0.00,,,0.00,Wunderground v.1.15,2013-08-29 21:52:00,
2013-08-29 14:54:00,79.4,59.7,29.84,West,271,7.0,11.0,51,0.00,,,0.00,Wunderground v.1.15,2013-08-29 21:54:00,
2013-08-29 14:55:00,79.6,58.2,29.84,West,261,4.0,11.0,48,0.00,,,0.00,Wunderground v.1.15,2013-08-29 21:55:00,
2013-08-29 14:56:00,79.6,57.6,29.84,WNW,292,12.0,13.0,47,0.00,,,0.00,Wunderground v.1.15,2013-08-29 21:56:00,
2013-08-29 14:58:00,79.7,57.7,29.84,WNW,284,12.0,16.0,47,0.00,,,0.00,Wunderground v.1.15,2013-08-29 21:58:00,
2013-08-29 14:59:00,79.7,58.8,29.84,West,276,10.0,16.0,49,0.00,,,0.00,Wunderground v.1.15,2013-08-29 21:59:00,
2013-08-29 15:00:00,79.7,58.3,29.84,West,276,6.0,16.0,48,0.00,,,0.00,Wunderground v.1.15,2013-08-29 22:00:00,
2013-08-29 15:01:00,79.7,57.1,29.84,WNW,283,7.0,13.0,46,0.00,,,0.00,Wunderground v.1.15,2013-08-29 22:01:00,
2013-08-29 15:03:00,79.8,58.4,29.84,West,276,8.0,13.0,48,0.00,,,0.00,Wunderground v.1.15,2013-08-29 22:03:00,
2013-08-29 15:04:00,79.9,57.3,29.84,WNW,285,8.0,13.0,46,0.00,,,0.00,Wunderground v.1.15,2013-08-29 22:04:00,
2013-08-29 15:05:00,80.0,59.7,29.84,West,270,5.0,13.0,50,0.00,,,0.00,Wunderground v.1.15,2013-08-29 22:05:00,
2013-08-29 15:06:00,80.0,58.0,29.84,West,263,4.0,13.0,47,0.00,,,0.00,Wunderground v.1.15,2013-08-29 22:06:00,
2013-08-29 15:08:00,79.9,57.9,29.84,SW,225,7.0,13.0,47,0.00,,,0.00,Wunderground v.1.15,2013-08-29 22:08:00,
2013-08-29 15:09:00,79.8,58.4,29.84,WSW,238,10.0,13.0,48,0.00,,,0.00,Wunderground v.1.15,2013-08-29 22:09:00,
2013-08-29 15:10:00,79.7,58.8,29.84,West,261,7.0,13.0,49,0.00,,,0.00,Wunderground v.1.15,2013-08-29 22:10:00,
2013-08-29 15:11:00,79.7,58.8,29.84,SW,234,6.0,8.0,49,0.00,,,0.00,Wunderground v.1.15,2013-08-29 22:11:00,
2013-08-29 15:13:00,79.6,59.3,29.84,SW,231,9.0,14.0,50,0.00,,,0.00,Wunderground v.1.15,2013-08-29 22:13:00,
2013-08-29 15:14:00,79.6,58.2,29.84,SW,224,13.0,14.0,48,0.00,,,0.00,Wunderground v.1.15,2013-08-29 22:14:00,
2013-08-29 15:15:00,79.4,57.4,29.84,WSW,238,9.0,14.0,47,0.00,,,0.00,Wunderground v.1.15,2013-08-29 22:15:00,
2013-08-29 15:16:00,79.3,57.9,29.84,SW,230,12.0,14.0,48,0.00,,,0.00,Wunderground v.1.15,2013-08-29 22:16:00,
2013-08-29 15:19:00,79.3,59.0,29.84,West,273,5.0,14.0,50,0.00,,,0.00,Wunderground v.1.15,2013-08-29 22:19:00,
2013-08-29 15:20:00,79.5,60.3,29.84,West,265,8.0,11.0,52,0.00,,,0.00,Wunderground v.1.15,2013-08-29 22:20:00,
2013-08-29 15:21:00,79.5,58.7,29.84,SW,236,5.0,11.0,49,0.00,,,0.00,Wunderground v.1.15,2013-08-29 22:21:00,
2013-08-29 15:24:00,79.7,58.8,29.84,WSW,240,4.0,11.0,49,0.00,,,0.00,Wunderground v.1.15,2013-08-29 22:24:00,
2013-08-29 15:26:00,79.9,58.5,29.84,SW,235,8.0,14.0,48,0.00,,,0.00,Wunderground v.1.15,2013-08-29 22:26:00,
2013-08-29 15:29:00,79.5,58.7,29.84,WSW,246,6.0,14.0,49,0.00,,,0.00,Wunderground v.1.15,2013-08-29 22:29:00,
2013-08-29 15:31:00,79.6,58.8,29.85,SW,236,5.0,12.0,49,0.00,,,0.00,Wunderground v.1.15,2013-08-29 22:31:00,
2013-08-29 15:34:00,79.4,58.6,29.85,SW,234,9.0,14.0,49,0.00,,,0.00,Wunderground v.1.15,2013-08-29 22:34:00,
2013-08-29 15:36:00,79.7,58.8,29.85,SW,236,10.0,14.0,49,0.00,,,0.00,Wunderground v.1.15,2013-08-29 22:36:00,
2013-08-29 15:37:00,79.7,58.8,29.85,WSW,246,13.0,14.0,49,0.00,,,0.00,Wunderground v.1.15,2013-08-29 22:37:00,
2013-08-29 15:39:00,79.7,57.7,29.85,WSW,240,12.0,17.0,47,0.00,,,0.00,Wunderground v.1.15,2013-08-29 22:39:00,
2013-08-29 15:41:00,79.5,58.1,29.85,SW,227,9.0,13.0,48,0.00,,,0.00,Wunderground v.1.15,2013-08-29 22:41:00,
2013-08-29 15:42:00,79.5,58.1,29.85,SW,232,7.0,13.0,48,0.00,,,0.00,Wunderground v.1.15,2013-08-29 22:42:00,
2013-08-29 15:44:00,79.5,58.1,29.85,SW,228,3.0,13.0,48,0.00,,,0.00,Wunderground v.1.15,2013-08-29 22:44:00,
2013-08-29 15:47:00,79.4,58.0,29.85,SW,230,9.0,13.0,48,0.00,,,0.00,Wunderground v.1.15,2013-08-29 22:47:00,
2013-08-29 15:49:00,79.3,59.6,29.85,West,273,5.0,13.0,51,0.00,,,0.00,Wunderground v.1.15,2013-08-29 22:49:00,
2013-08-29 15:50:00,79.3,59.6,29.85,West,274,6.0,13.0,51,0.00,,,0.00,Wunderground v.1.15,2013-08-29 22:50:00,
2013-08-29 15:52:00,79.5,59.2,29.85,West,275,11.0,13.0,50,0.00,,,0.00,Wunderground v.1.15,2013-08-29 22:52:00,
2013-08-29 15:54:00,79.5,59.8,29.85,West,270,6.0,13.0,51,0.00,,,0.00,Wunderground v.1.15,2013-08-29 22:54:00,
2013-08-29 15:55:00,79.6,58.8,29.85,West,259,5.0,13.0,49,0.00,,,0.00,Wunderground v.1.15,2013-08-29 22:55:00,
2013-08-29 15:57:00,79.7,58.8,29.85,West,267,6.0,13.0,49,0.00,,,0.00,Wunderground v.1.15,2013-08-29 22:57:00,
2013-08-29 15:58:00,79.7,59.4,29.85,WSW,240,8.0,13.0,50,0.00,,,0.00,Wunderground v.1.15,2013-08-29 22:58:00,
2013-08-29 15:59:00,79.8,60.1,29.85,West,261,8.0,13.0,51,0.00,,,0.00,Wunderground v.1.15,2013-08-29 22:59:00,
2013-08-29 16:00:00,79.8,59.5,29.85,West,259,8.0,8.0,50,0.00,,,0.00,Wunderground v.1.15,2013-08-29 23:00:00,
2013-08-29 16:02:00,79.9,59.0,29.85,West,263,4.0,8.0,49,0.00,,,0.00,Wunderground v.1.15,2013-08-29 23:02:00,
2013-08-29 16:03:00,80.0,59.1,29.85,WSW,242,11.0,11.0,49,0.00,,,0.00,Wunderground v.1.15,2013-08-29 23:03:00,
2013-08-29 16:05:00,80.0,59.7,29.85,SW,233,9.0,11.0,50,0.00,,,0.00,Wunderground v.1.15,2013-08-29 23:05:00,
2013-08-29 16:07:00,79.8,58.9,29.85,West,266,7.0,11.0,49,0.00,,,0.00,Wunderground v.1.15,2013-08-29 23:07:00,
2013-08-29 16:08:00,79.8,58.9,29.85,West,259,13.0,13.0,49,0.00,,,0.00,Wunderground v.1.15,2013-08-29 23:08:00,
2013-08-29 16:10:00,79.8,59.5,29.85,West,269,6.0,13.0,50,0.00,,,0.00,Wunderground v.1.15,2013-08-29 23:10:00,
2013-08-29 16:11:00,79.9,58.5,29.85,WSW,250,7.0,10.0,48,0.00,,,0.00,Wunderground v.1.15,2013-08-29 23:11:00,
2013-08-29 16:12:00,80.0,59.1,29.85,SW,235,6.0,10.0,49,0.00,,,0.00,Wunderground v.1.15,2013-08-29 23:12:00,
2013-08-29 16:13:00,79.9,58.5,29.85,SW,236,7.0,10.0,48,0.00,,,0.00,Wunderground v.1.15,2013-08-29 23:13:00,
2013-08-29 16:15:00,80.0,60.2,29.85,West,272,6.0,10.0,51,0.00,,,0.00,Wunderground v.1.15,2013-08-29 23:15:00,
2013-08-29 16:16:00,80.2,59.9,29.85,West,275,9.0,10.0,50,0.00,,,0.00,Wunderground v.1.15,2013-08-29 23:16:00,
2013-08-29 16:17:00,80.5,61.3,29.85,WNW,296,6.0,10.0,52,0.00,,,0.00,Wunderground v.1.15,2013-08-29 23:17:00,
2013-08-29 16:18:00,80.6,62.4,29.85,West,276,9.0,11.0,54,0.00,,,0.00,Wunderground v.1.15,2013-08-29 23:18:00,
2013-08-29 16:20:00,80.7,60.3,29.85,SW,232,9.0,11.0,50,0.00,,,0.00,Wunderground v.1.15,2013-08-29 23:20:00,
2013-08-29 16:21:00,80.7,59.2,29.85,West,259,10.0,10.0,48,0.00,,,0.00,Wunderground v.1.15,2013-08-29 23:21:00,
2013-08-29 16:22:00,80.7,58.6,29.85,WSW,242,10.0,13.0,47,0.00,,,0.00,Wunderground v.1.15,2013-08-29 23:22:00,
2013-08-29 16:23:00,80.6,59.1,29.85,WSW,240,9.0,13.0,48,0.00,,,0.00,Wunderground v.1.15,2013-08-29 23:23:00,
2013-08-29 16:25:00,80.4,58.3,29.85,WSW,256,5.0,13.0,47,0.00,,,0.00,Wunderground v.1.15,2013-08-29 23:25:00,
2013-08-29 16:26:00,80.4,58.9,29.85,WSW,250,3.0,13.0,48,0.00,,,0.00,Wunderground v.1.15,2013-08-29 23:26:00,
2013-08-29 16:27:00,80.3,58.8,29.85,WSW,240,6.0,13.0,48,0.00,,,0.00,Wunderground v.1.15,2013-08-29 23:27:00,
2013-08-29 16:28:00,80.3,59.4,29.85,WSW,249,7.0,13.0,49,0.00,,,0.00,Wunderground v.1.15,2013-08-29 23:28:00,
2013-08-29 16:30:00,80.5,59.6,29.85,West,281,5.0,13.0,49,0.00,,,0.00,Wunderground v.1.15,2013-08-29 23:30:00,
2013-08-29 16:31:00,80.6,60.2,29.85,WSW,255,7.0,9.0,50,0.00,,,0.00,Wunderground v.1.15,2013-08-29 23:31:00,
2013-08-29 16:32:00,80.5,59.6,29.85,West,275,8.0,9.0,49,0.00,,,0.00,Wunderground v.1.15,2013-08-29 23:32:00,
2013-08-29 16:33:00,80.5,58.4,29.85,WSW,240,10.0,12.0,47,0.00,,,0.00,Wunderground v.1.15,2013-08-29 23:33:00,
2013-08-29 16:34:00,80.5,58.4,29.85,West,262,9.0,12.0,47,0.00,,,0.00,Wunderground v.1.15,2013-08-29 23:34:00,
2013-08-29 16:35:00,80.5,59.0,29.85,WSW,242,8.0,12.0,48,0.00,,,0.00,Wunderground v.1.15,2013-08-29 23:35:00,
2013-08-29 16:36:00,80.4,57.7,29.85,SW,233,7.0,12.0,46,0.00,,,0.00,Wunderground v.1.15,2013-08-29 23:36:00,
2013-08-29 16:38:00,80.4,57.7,29.85,West,265,8.0,12.0,46,0.00,,,0.00,Wunderground v.1.15,2013-08-29 23:38:00,
2013-08-29 16:39:00,80.4,57.7,29.85,West,266,9.0,12.0,46,0.00,,,0.00,Wunderground v.1.15,2013-08-29 23:39:00,
2013-08-29 16:40:00,80.4,57.1,29.85,WSW,248,6.0,12.0,45,0.00,,,0.00,Wunderground v.1.15,2013-08-29 23:40:00,
2013-08-29 16:41:00,80.4,57.7,29.85,WSW,241,9.0,10.0,46,0.00,,,0.00,Wunderground v.1.15,2013-08-29 23:41:00,
2013-08-29 16:42:00,80.4,58.3,29.85,WSW,238,9.0,12.0,47,0.00,,,0.00,Wunderground v.1.15,2013-08-29 23:42:00,
2013-08-29 16:43:00,80.3,58.2,29.85,West,259,4.0,12.0,47,0.00,,,0.00,Wunderground v.1.15,2013-08-29 23:43:00,
2013-08-29 16:44:00,80.4,58.3,29.85,SW,228,8.0,12.0,47,0.00,,,0.00,Wunderground v.1.15,2013-08-29 23:44:00,
2013-08-29 16:45:00,80.3,58.8,29.85,SW,229,7.0,12.0,48,0.00,,,0.00,Wunderground v.1.15,2013-08-29 23:45:00,
2013-08-29 16:46:00,80.3,58.2,29.85,WSW,255,6.0,12.0,47,0.00,,,0.00,Wunderground v.1.15,2013-08-29 23:46:00,
2013-08-29 16:48:00,80.2,58.1,29.85,West,262,6.0,12.0,47,0.00,,,0.00,Wunderground v.1.15,2013-08-29 23:48:00,
2013-08-29 16:49:00,80.2,56.9,29.85,West,261,7.0,12.0,45,0.00,,,0.00,Wunderground v.1.15,2013-08-29 23:49:00,
2013-08-29 16:50:00,80.3,58.2,29.85,West,275,10.0,12.0,47,0.00,,,0.00,Wunderground v.1.15,2013-08-29 23:50:00,
2013-08-29 16:51:00,80.4,56.5,29.85,WNW,288,9.0,11.0,44,0.00,,,0.00,Wunderground v.1.15,2013-08-29 23:51:00,
2013-08-29 16:53:00,80.5,56.6,29.85,West,271,6.0,11.0,44,0.00,,,0.00,Wunderground v.1.15,2013-08-29 23:53:00,
2013-08-29 16:54:00,80.6,56.7,29.85,West,261,10.0,12.0,44,0.00,,,0.00,Wunderground v.1.15,2013-08-29 23:54:00,
2013-08-29 16:55:00,80.6,57.9,29.85,West,260,6.0,12.0,46,0.00,,,0.00,Wunderground v.1.15,2013-08-29 23:55:00,
2013-08-29 16:56:00,80.7,56.1,29.85,West,268,8.0,12.0,43,0.00,,,0.00,Wunderground v.1.15,2013-08-29 23:56:00,
2013-08-29 16:58:00,80.9,58.2,29.86,WSW,251,8.0,12.0,46,0.00,,,0.00,Wunderground v.1.15,2013-08-29 23:58:00,
2013-08-29 16:59:00,80.9,56.9,29.86,West,275,8.0,13.0,44,0.00,,,0.00,Wunderground v.1.15,2013-08-29 23:59:00,
2013-08-29 17:00:00,80.9,56.3,29.86,West,270,8.0,13.0,43,0.00,,,0.00,Wunderground v.1.15,2013-08-30 00:00:00,
2013-08-29 17:01:00,80.7,58.6,29.86,West,271,5.0,8.0,47,0.00,,,0.00,Wunderground v.1.15,2013-08-30 00:01:00,
2013-08-29 17:03:00,80.8,59.3,29.85,West,266,6.0,9.0,48,0.00,,,0.00,Wunderground v.1.15,2013-08-30 00:03:00,
2013-08-29 17:04:00,80.8,58.1,29.85,West,263,4.0,9.0,46,0.00,,,0.00,Wunderground v.1.15,2013-08-30 00:04:00,
2013-08-29 17:05:00,80.7,58.6,29.85,West,276,4.0,9.0,47,0.00,,,0.00,Wunderground v.1.15,2013-08-30 00:05:00,
2013-08-29 17:06:00,80.6,57.9,29.85,West,261,6.0,9.0,46,0.00,,,0.00,Wunderground v.1.15,2013-08-30 00:06:00,
2013-08-29 17:08:00,80.5,57.8,29.85,WSW,240,7.0,9.0,46,0.00,,,0.00,Wunderground v.1.15,2013-08-30 00:08:00,
2013-08-29 17:09:00,80.4,58.3,29.85,WNW,290,6.0,14.0,47,0.00,,,0.00,Wunderground v.1.15,2013-08-30 00:09:00,
2013-08-29 17:10:00,80.4,60.6,29.86,West,277,6.0,14.0,51,0.00,,,0.00,Wunderground v.1.15,2013-08-30 00:10:00,
2013-08-29 17:12:00,80.5,59.0,29.85,West,276,7.0,7.0,48,0.00,,,0.00,Wunderground v.1.15,2013-08-30 00:12:00,
2013-08-29 17:13:00,80.6,57.9,29.85,West,277,3.0,7.0,46,0.00,,,0.00,Wunderground v.1.15,2013-08-30 00:13:00,
2013-08-29 17:14:00,80.7,58.6,29.85,WNW,286,4.0,7.0,47,0.00,,,0.00,Wunderground v.1.15,2013-08-30 00:14:00,
2013-08-29 17:15:00,80.8,59.9,29.85,WNW,292,4.0,7.0,49,0.00,,,0.00,Wunderground v.1.15,2013-08-30 00:15:00,
2013-08-29 17:17:00,80.9,56.9,29.85,WNW,292,0.0,7.0,44,0.00,,,0.00,Wunderground v.1.15,2013-08-30 00:17:00,
2013-08-29 17:18:00,81.0,57.7,29.85,WNW,291,2.0,7.0,45,0.00,,,0.00,Wunderground v.1.15,2013-08-30 00:18:00,
2013-08-29 17:20:00,81.2,59.6,29.85,WNW,290,3.0,7.0,48,0.00,,,0.00,Wunderground v.1.15,2013-08-30 00:20:00,
2013-08-29 17:22:00,81.4,59.8,29.85,NW,306,7.0,8.0,48,0.00,,,0.00,Wunderground v.1.15,2013-08-30 00:22:00,
2013-08-29 17:23:00,81.3,57.9,29.85,NW,313,7.0,8.0,45,0.00,,,0.00,Wunderground v.1.15,2013-08-30 00:23:00,
2013-08-29 17:25:00,81.0,58.9,29.85,NW,312,6.0,8.0,47,0.00,,,0.00,Wunderground v.1.15,2013-08-30 00:25:00,
2013-08-29 17:27:00,80.7,60.9,29.85,WNW,294,9.0,9.0,51,0.00,,,0.00,Wunderground v.1.15,2013-08-30 00:27:00,
2013-08-29 17:28:00,80.7,57.4,29.85,WNW,291,5.0,9.0,45,0.00,,,0.00,Wunderground v.1.15,2013-08-30 00:28:00,
2013-08-29 17:30:00,80.8,59.3,29.85,WNW,291,3.0,9.0,48,0.00,,,0.00,Wunderground v.1.15,2013-08-30 00:30:00,
2013-08-29 17:31:00,80.9,59.9,29.85,WNW,291,1.0,5.0,49,0.00,,,0.00,Wunderground v.1.15,2013-08-30 00:31:00,
2013-08-29 17:32:00,81.1,59.0,29.85,WNW,299,6.0,8.0,47,0.00,,,0.00,Wunderground v.1.15,2013-08-30 00:32:00,
2013-08-29 17:33:00,81.2,60.8,29.85,WNW,298,6.0,8.0,50,0.00,,,0.00,Wunderground v.1.15,2013-08-30 00:33:00,
2013-08-29 17:35:00,81.5,62.2,29.85,WNW,297,6.0,8.0,52,0.00,,,0.00,Wunderground v.1.15,2013-08-30 00:35:00,
2013-08-29 17:36:00,81.5,62.2,29.85,WNW,297,4.0,8.0,52,0.00,,,0.00,Wunderground v.1.15,2013-08-30 00:36:00,
2013-08-29 17:38:00,81.7,60.1,29.85,WNW,296,4.0,8.0,48,0.00,,,0.00,Wunderground v.1.15,2013-08-30 00:38:00,
2013-08-29 17:40:00,81.6,58.2,29.85,WNW,295,3.0,4.0,45,0.00,,,0.00,Wunderground v.1.15,2013-08-30 00:40:00,
2013-08-29 17:41:00,81.6,56.9,29.85,WNW,295,3.0,4.0,43,0.00,,,0.00,Wunderground v.1.15,2013-08-30 00:41:00,
2013-08-29 17:43:00,81.4,58.6,29.85,WNW,301,5.0,7.0,46,0.00,,,0.00,Wunderground v.1.15,2013-08-30 00:43:00,
2013-08-29 17:45:00,81.3,60.3,29.85,WNW,296,4.0,7.0,49,0.00,,,0.00,Wunderground v.1.15,2013-08-30 00:45:00,
2013-08-29 17:46:00,81.3,60.9,29.85,WNW,296,4.0,7.0,50,0.00,,,0.00,Wunderground v.1.15,2013-08-30 00:46:00,
2013-08-29 17:48:00,81.1,60.7,29.85,WNW,300,2.0,7.0,50,0.00,,,0.00,Wunderground v.1.15,2013-08-30 00:48:00,
2013-08-29 17:50:00,80.9,60.5,29.85,WNW,300,2.0,4.0,50,0.00,,,0.00,Wunderground v.1.15,2013-08-30 00:50:00,
2013-08-29 17:51:00,80.9,61.6,29.85,WNW,300,0.0,4.0,52,0.00,,,0.00,Wunderground v.1.15,2013-08-30 00:51:00,
2013-08-29 17:53:00,80.8,60.4,29.85,WNW,296,7.0,7.0,50,0.00,,,0.00,Wunderground v.1.15,2013-08-30 00:53:00,
2013-08-29 17:55:00,80.6,60.8,29.85,WNW,286,4.0,11.0,51,0.00,,,0.00,Wunderground v.1.15,2013-08-30 00:55:00,
2013-08-29 17:56:00,80.6,61.3,29.85,WNW,286,3.0,11.0,52,0.00,,,0.00,Wunderground v.1.15,2013-08-30 00:56:00,
2013-08-29 17:58:00,80.6,60.8,29.85,WNW,286,2.0,11.0,51,0.00,,,0.00,Wunderground v.1.15,2013-08-30 00:58:00,
2013-08-29 18:00:00,80.6,60.8,29.85,WNW,286,3.0,3.0,51,0.00,,,0.00,Wunderground v.1.15,2013-08-30 01:00:00,
2013-08-29 18:01:00,80.6,60.8,29.85,WNW,286,2.0,3.0,51,0.00,,,0.00,Wunderground v.1.15,2013-08-30 01:01:00,
2013-08-29 18:02:00,80.6,60.8,29.85,WNW,287,2.0,3.0,51,0.00,,,0.00,Wunderground v.1.15,2013-08-30 01:02:00,
2013-08-29 18:03:00,80.6,62.9,29.85,WNW,287,2.0,4.0,55,0.00,,,0.00,Wunderground v.1.15,2013-08-30 01:03:00,
2013-08-29 18:04:00,80.6,62.9,29.85,WNW,287,3.0,4.0,55,0.00,,,0.00,Wunderground v.1.15,2013-08-30 01:04:00,
2013-08-29 18:06:00,80.5,61.3,29.84,WNW,287,4.0,5.0,52,0.00,,,0.00,Wunderground v.1.15,2013-08-30 01:06:00,
2013-08-29 18:07:00,80.4,59.5,29.84,WNW,287,2.0,5.0,49,0.00,,,0.00,Wunderground v.1.15,2013-08-30 01:07:00,
2013-08-29 18:09:00,80.5,60.7,29.85,WNW,287,3.0,5.0,51,0.00,,,0.00,Wunderground v.1.15,2013-08-30 01:09:00,
2013-08-29 18:11:00,80.7,58.6,29.85,WNW,287,4.0,5.0,47,0.00,,,0.00,Wunderground v.1.15,2013-08-30 01:11:00,
2013-08-29 18:12:00,80.9,59.4,29.85,WNW,287,3.0,5.0,48,0.00,,,0.00,Wunderground v.1.15,2013-08-30 01:12:00,
2013-08-29 18:14:00,80.9,59.4,29.85,WNW,287,4.0,5.0,48,0.00,,,0.00,Wunderground v.1.15,2013-08-30 01:14:00,
2013-08-29 18:16:00,80.9,58.2,29.85,WNW,287,4.0,6.0,46,0.00,,,0.00,Wunderground v.1.15,2013-08-30 01:16:00,
2013-08-29 18:17:00,80.9,59.9,29.85,WNW,288,3.0,6.0,49,0.00,,,0.00,Wunderground v.1.15,2013-08-30 01:17:00,
2013-08-29 18:18:00,81.0,61.2,29.85,WNW,288,3.0,6.0,51,0.00,,,0.00,Wunderground v.1.15,2013-08-30 01:18:00,
2013-08-29 18:19:00,81.0,58.9,29.85,WNW,288,4.0,6.0,47,0.00,,,0.00,Wunderground v.1.15,2013-08-30 01:19:00,
2013-08-29 18:21:00,81.0,57.7,29.84,WNW,288,1.0,4.0,45,0.00,,,0.00,Wunderground v.1.15,2013-08-30 01:21:00,
2013-08-29 18:22:00,81.0,57.0,29.84,WNW,289,3.0,6.0,44,0.00,,,0.00,Wunderground v.1.15,2013-08-30 01:22:00,
2013-08-29 18:24:00,81.0,57.7,29.84,WNW,289,4.0,6.0,45,0.00,,,0.00,Wunderground v.1.15,2013-08-30 01:24:00,
2013-08-29 18:26:00,80.8,59.9,29.84,WNW,289,3.0,6.0,49,0.00,,,0.00,Wunderground v.1.15,2013-08-30 01:26:00,
2013-08-29 18:27:00,80.6,59.1,29.84,WNW,289,3.0,6.0,48,0.00,,,0.00,Wunderground v.1.15,2013-08-30 01:27:00,
2013-08-29 18:28:00,80.6,57.3,29.84,WNW,289,4.0,6.0,45,0.00,,,0.00,Wunderground v.1.15,2013-08-30 01:28:00,
2013-08-29 18:29:00,80.5,57.2,29.84,WNW,289,2.0,6.0,45,0.00,,,0.00,Wunderground v.1.15,2013-08-30 01:29:00,
2013-08-29 18:31:00,80.5,57.2,29.84,WNW,289,2.0,3.0,45,0.00,,,0.00,Wunderground v.1.15,2013-08-30 01:31:00,
2013-08-29 18:32:00,80.5,57.2,29.84,WNW,289,3.0,5.0,45,0.00,,,0.00,Wunderground v.1.15,2013-08-30 01:32:00,
2013-08-29 18:33:00,80.5,57.2,29.84,WNW,289,3.0,5.0,45,0.00,,,0.00,Wunderground v.1.15,2013-08-30 01:33:00,
2013-08-29 18:34:00,80.5,56.6,29.84,WNW,289,5.0,5.0,44,0.00,,,0.00,Wunderground v.1.15,2013-08-30 01:34:00,
2013-08-29 18:36:00,80.5,56.6,29.84,WNW,289,4.0,6.0,44,0.00,,,0.00,Wunderground v.1.15,2013-08-30 01:36:00,
2013-08-29 18:37:00,80.5,57.2,29.84,WNW,289,2.0,6.0,45,0.00,,,0.00,Wunderground v.1.15,2013-08-30 01:37:00,
2013-08-29 18:38:00,80.6,57.9,29.84,WNW,289,1.0,6.0,46,0.00,,,0.00,Wunderground v.1.15,2013-08-30 01:38:00,
2013-08-29 18:39:00,80.5,57.8,29.84,WNW,289,3.0,6.0,46,0.00,,,0.00,Wunderground v.1.15,2013-08-30 01:39:00,
2013-08-29 18:40:00,80.6,57.9,29.84,WNW,289,3.0,6.0,46,0.00,,,0.00,Wunderground v.1.15,2013-08-30 01:40:00,
2013-08-29 18:41:00,80.5,56.6,29.84,WNW,289,3.0,4.0,44,0.00,,,0.00,Wunderground v.1.15,2013-08-30 01:41:00,
2013-08-29 18:42:00,80.5,55.9,29.84,WNW,289,3.0,4.0,43,0.00,,,0.00,Wunderground v.1.15,2013-08-30 01:42:00,
2013-08-29 18:43:00,80.5,56.6,29.84,WNW,289,3.0,4.0,44,0.00,,,0.00,Wunderground v.1.15,2013-08-30 01:43:00,
2013-08-29 18:44:00,80.5,55.9,29.84,WNW,289,3.0,4.0,43,0.00,,,0.00,Wunderground v.1.15,2013-08-30 01:44:00,
2013-08-29 18:45:00,80.5,57.2,29.84,WNW,289,2.0,4.0,45,0.00,,,0.00,Wunderground v.1.15,2013-08-30 01:45:00,
2013-08-29 18:46:00,80.5,57.2,29.84,WNW,289,2.0,4.0,45,0.00,,,0.00,Wunderground v.1.15,2013-08-30 01:46:00,
2013-08-29 18:47:00,80.5,57.8,29.84,WNW,289,3.0,4.0,46,0.00,,,0.00,Wunderground v.1.15,2013-08-30 01:47:00,
2013-08-29 18:48:00,80.5,57.2,29.84,WNW,289,1.0,4.0,45,0.00,,,0.00,Wunderground v.1.15,2013-08-30 01:48:00,
2013-08-29 18:49:00,80.5,58.4,29.84,WNW,289,1.0,4.0,47,0.00,,,0.00,Wunderground v.1.15,2013-08-30 01:49:00,
2013-08-29 18:50:00,80.6,65.4,29.84,WNW,289,3.0,4.0,60,0.00,,,0.00,Wunderground v.1.15,2013-08-30 01:50:00,
2013-08-29 18:51:00,80.6,62.9,29.84,WNW,289,2.0,3.0,55,0.00,,,0.00,Wunderground v.1.15,2013-08-30 01:51:00,
2013-08-29 18:52:00,80.5,61.3,29.84,WNW,289,3.0,4.0,52,0.00,,,0.00,Wunderground v.1.15,2013-08-30 01:52:00,
2013-08-29 18:54:00,80.5,63.4,29.84,WNW,289,1.0,4.0,56,0.00,,,0.00,Wunderground v.1.15,2013-08-30 01:54:00,
2013-08-29 18:55:00,80.4,59.5,29.84,WNW,289,2.0,4.0,49,0.00,,,0.00,Wunderground v.1.15,2013-08-30 01:55:00,
2013-08-29 18:56:00,80.4,57.7,29.84,WNW,289,3.0,4.0,46,0.00,,,0.00,Wunderground v.1.15,2013-08-30 01:56:00,
2013-08-29 18:57:00,80.3,57.0,29.84,WNW,289,4.0,5.0,45,0.00,,,0.00,Wunderground v.1.15,2013-08-30 01:57:00,
2013-08-29 18:59:00,80.2,56.9,29.85,WNW,289,0.0,5.0,45,0.00,,,0.00,Wunderground v.1.15,2013-08-30 01:59:00,
2013-08-29 19:00:00,80.2,56.9,29.85,WNW,289,1.0,5.0,45,0.00,,,0.00,Wunderground v.1.15,2013-08-30 02:00:00,
2013-08-29 19:01:00,80.1,56.8,29.85,WNW,289,3.0,5.0,45,0.00,,,0.00,Wunderground v.1.15,2013-08-30 02:01:00,
2013-08-29 19:02:00,80.1,57.5,29.85,WNW,289,2.0,5.0,46,0.00,,,0.00,Wunderground v.1.15,2013-08-30 02:02:00,
2013-08-29 19:04:00,80.1,56.8,29.85,WNW,289,3.0,5.0,45,0.00,,,0.00,Wunderground v.1.15,2013-08-30 02:04:00,
2013-08-29 19:05:00,80.1,57.5,29.85,WNW,289,3.0,5.0,46,0.00,,,0.00,Wunderground v.1.15,2013-08-30 02:05:00,
2013-08-29 19:06:00,80.0,57.4,29.85,WNW,289,3.0,5.0,46,0.00,,,0.00,Wunderground v.1.15,2013-08-30 02:06:00,
2013-08-29 19:07:00,79.8,57.2,29.85,WNW,289,5.0,5.0,46,0.00,,,0.00,Wunderground v.1.15,2013-08-30 02:07:00,
2013-08-29 19:09:00,79.7,58.3,29.85,WNW,289,3.0,5.0,48,0.00,,,0.00,Wunderground v.1.15,2013-08-30 02:09:00,
2013-08-29 19:10:00,79.6,58.8,29.85,WNW,289,4.0,5.0,49,0.00,,,0.00,Wunderground v.1.15,2013-08-30 02:10:00,
2013-08-29 19:11:00,79.6,58.8,29.85,WNW,289,3.0,4.0,49,0.00,,,0.00,Wunderground v.1.15,2013-08-30 02:11:00,
2013-08-29 19:12:00,79.6,57.6,29.85,WNW,289,2.0,4.0,47,0.00,,,0.00,Wunderground v.1.15,2013-08-30 02:12:00,
2013-08-29 19:14:00,79.6,59.3,29.85,WNW,289,2.0,4.0,50,0.00,,,0.00,Wunderground v.1.15,2013-08-30 02:14:00,
2013-08-29 19:15:00,79.6,59.9,29.85,WNW,289,3.0,4.0,51,0.00,,,0.00,Wunderground v.1.15,2013-08-30 02:15:00,
2013-08-29 19:16:00,79.7,61.6,29.85,WNW,289,2.0,4.0,54,0.00,,,0.00,Wunderground v.1.15,2013-08-30 02:16:00,
2013-08-29 19:17:00,79.7,62.6,29.85,WNW,289,2.0,4.0,56,0.00,,,0.00,Wunderground v.1.15,2013-08-30 02:17:00,
2013-08-29 19:19:00,79.7,61.1,29.85,WNW,289,1.0,4.0,53,0.00,,,0.00,Wunderground v.1.15,2013-08-30 02:19:00,
2013-08-29 19:20:00,79.8,63.2,29.85,WNW,289,1.0,3.0,57,0.00,,,0.00,Wunderground v.1.15,2013-08-30 02:20:00,
2013-08-29 19:21:00,79.7,63.6,29.85,WNW,289,2.0,3.0,58,0.00,,,0.00,Wunderground v.1.15,2013-08-30 02:21:00,
2013-08-29 19:22:00,79.7,65.1,29.85,WNW,289,2.0,3.0,61,0.00,,,0.00,Wunderground v.1.15,2013-08-30 02:22:00,
2013-08-29 19:24:00,79.3,65.1,29.85,WNW,289,2.0,3.0,62,0.00,,,0.00,Wunderground v.1.15,2013-08-30 02:24:00,
2013-08-29 19:25:00,79.1,65.0,29.85,WNW,289,3.0,5.0,62,0.00,,,0.00,Wunderground v.1.15,2013-08-30 02:25:00,
2013-08-29 19:26:00,78.8,61.3,29.85,WNW,288,5.0,7.0,55,0.00,,,0.00,Wunderground v.1.15,2013-08-30 02:26:00,
2013-08-29 19:27:00,78.6,59.0,29.85,WNW,288,3.0,7.0,51,0.00,,,0.00,Wunderground v.1.15,2013-08-30 02:27:00,
2013-08-29 19:29:00,78.3,63.3,29.85,WNW,288,2.0,7.0,60,0.00,,,0.00,Wunderground v.1.15,2013-08-30 02:29:00,
2013-08-29 19:30:00,78.3,63.3,29.85,WNW,288,2.0,7.0,60,0.00,,,0.00,Wunderground v.1.15,2013-08-30 02:30:00,
2013-08-29 19:31:00,78.1,62.1,29.85,WNW,288,3.0,3.0,58,0.00,,,0.00,Wunderground v.1.15,2013-08-30 02:31:00,
2013-08-29 19:32:00,77.7,60.8,29.85,WNW,288,3.0,3.0,56,0.00,,,0.00,Wunderground v.1.15,2013-08-30 02:32:00,
2013-08-29 19:34:00,76.7,61.8,29.85,WNW,288,3.0,4.0,60,0.00,,,0.00,Wunderground v.1.15,2013-08-30 02:34:00,
2013-08-29 19:35:00,76.4,60.5,29.85,WNW,289,3.0,4.0,58,0.00,,,0.00,Wunderground v.1.15,2013-08-30 02:35:00,
2013-08-29 19:36:00,76.2,60.3,29.85,WNW,289,3.0,4.0,58,0.00,,,0.00,Wunderground v.1.15,2013-08-30 02:36:00,
2013-08-29 19:37:00,75.8,60.4,29.85,WNW,290,3.0,4.0,59,0.00,,,0.00,Wunderground v.1.15,2013-08-30 02:37:00,
2013-08-29 19:38:00,75.7,59.9,29.85,WNW,290,2.0,4.0,58,0.00,,,0.00,Wunderground v.1.15,2013-08-30 02:38:00,
2013-08-29 19:39:00,75.3,60.0,29.85,WNW,290,2.0,4.0,59,0.00,,,0.00,Wunderground v.1.15,2013-08-30 02:39:00,
2013-08-29 19:40:00,75.3,62.7,29.85,WNW,290,2.0,3.0,65,0.00,,,0.00,Wunderground v.1.15,2013-08-30 02:40:00,
2013-08-29 19:41:00,75.3,63.6,29.85,WNW,290,2.0,3.0,67,0.00,,,0.00,Wunderground v.1.15,2013-08-30 02:41:00,
2013-08-29 19:43:00,75.1,62.1,29.85,WNW,290,3.0,3.0,64,0.00,,,0.00,Wunderground v.1.15,2013-08-30 02:43:00,
2013-08-29 19:44:00,74.8,59.5,29.85,WNW,290,2.0,3.0,59,0.00,,,0.00,Wunderground v.1.15,2013-08-30 02:44:00,
2013-08-29 19:46:00,74.7,59.4,29.86,WNW,290,2.0,3.0,59,0.00,,,0.00,Wunderground v.1.15,2013-08-30 02:46:00,
2013-08-29 19:48:00,74.7,61.7,29.86,WNW,290,3.0,3.0,64,0.00,,,0.00,Wunderground v.1.15,2013-08-30 02:48:00,
2013-08-29 19:49:00,74.5,59.7,29.86,WNW,290,3.0,4.0,60,0.00,,,0.00,Wunderground v.1.15,2013-08-30 02:49:00,
2013-08-29 19:51:00,74.4,57.7,29.86,WNW,290,3.0,4.0,56,0.00,,,0.00,Wunderground v.1.15,2013-08-30 02:51:00,
2013-08-29 19:53:00,74.4,57.2,29.86,WNW,292,4.0,4.0,55,0.00,,,0.00,Wunderground v.1.15,2013-08-30 02:53:00,
2013-08-29 19:54:00,74.4,59.6,29.86,WNW,295,3.0,5.0,60,0.00,,,0.00,Wunderground v.1.15,2013-08-30 02:54:00,
2013-08-29 19:56:00,74.1,59.3,29.86,WNW,296,3.0,5.0,60,0.00,,,0.00,Wunderground v.1.15,2013-08-30 02:56:00,
2013-08-29 19:58:00,73.9,58.2,29.86,WNW,296,3.0,5.0,58,0.00,,,0.00,Wunderground v.1.15,2013-08-30 02:58:00,
2013-08-29 19:59:00,73.7,58.9,29.86,WNW,297,2.0,5.0,60,0.00,,,0.00,Wunderground v.1.15,2013-08-30 02:59:00,
2013-08-29 20:00:00,73.6,58.9,29.86,WNW,297,2.0,5.0,60,0.00,,,0.00,Wunderground v.1.15,2013-08-30 03:00:00,
2013-08-29 20:01:00,73.3,57.6,29.86,WNW,297,3.0,4.0,58,0.00,,,0.00,Wunderground v.1.15,2013-08-30 03:01:00,
2013-08-29 20:02:00,73.2,56.6,29.87,WNW,297,3.0,4.0,56,0.00,,,0.00,Wunderground v.1.15,2013-08-30 03:02:00,
2013-08-29 20:03:00,73.2,56.6,29.87,WNW,297,3.0,4.0,56,0.00,,,0.00,Wunderground v.1.15,2013-08-30 03:03:00,
2013-08-29 20:04:00,73.2,58.9,29.87,WNW,297,2.0,4.0,61,0.00,,,0.00,Wunderground v.1.15,2013-08-30 03:04:00,
2013-08-29 20:05:00,73.1,58.8,29.87,WNW,297,3.0,4.0,61,0.00,,,0.00,Wunderground v.1.15,2013-08-30 03:05:00,
2013-08-29 20:06:00,72.8,58.6,29.87,WNW,297,3.0,4.0,61,0.00,,,0.00,Wunderground v.1.15,2013-08-30 03:06:00,
2013-08-29 20:07:00,72.7,58.0,29.87,WNW,297,3.0,4.0,60,0.00,,,0.00,Wunderground v.1.15,2013-08-30 03:07:00,
2013-08-29 20:08:00,72.3,57.6,29.87,WNW,298,4.0,4.0,60,0.00,,,0.00,Wunderground v.1.15,2013-08-30 03:08:00,
2013-08-29 20:09:00,71.9,57.7,29.87,WNW,298,2.0,4.0,61,0.00,,,0.00,Wunderground v.1.15,2013-08-30 03:09:00,
2013-08-29 20:10:00,71.9,57.7,29.87,WNW,298,2.0,4.0,61,0.00,,,0.00,Wunderground v.1.15,2013-08-30 03:10:00,
2013-08-29 20:11:00,71.6,58.3,29.87,WNW,303,4.0,6.0,63,0.00,,,0.00,Wunderground v.1.15,2013-08-30 03:11:00,
2013-08-29 20:12:00,71.6,58.3,29.87,NW,304,3.0,6.0,63,0.00,,,0.00,Wunderground v.1.15,2013-08-30 03:12:00,
2013-08-29 20:13:00,71.5,58.7,29.87,NW,304,3.0,6.0,64,0.00,,,0.00,Wunderground v.1.15,2013-08-30 03:13:00,
2013-08-29 20:15:00,71.3,57.2,29.87,NW,317,4.0,6.0,61,0.00,,,0.00,Wunderground v.1.15,2013-08-30 03:15:00,
2013-08-29 20:16:00,71.3,56.7,29.88,NW,321,4.0,6.0,60,0.00,,,0.00,Wunderground v.1.15,2013-08-30 03:16:00,
2013-08-29 20:17:00,71.3,56.7,29.87,NW,322,4.0,6.0,60,0.00,,,0.00,Wunderground v.1.15,2013-08-30 03:17:00,
2013-08-29 20:18:00,71.3,56.7,29.87,NW,325,4.0,6.0,60,0.00,,,0.00,Wunderground v.1.15,2013-08-30 03:18:00,
2013-08-29 20:20:00,71.3,56.7,29.88,NNW,329,3.0,6.0,60,0.00,,,0.00,Wunderground v.1.15,2013-08-30 03:20:00,
2013-08-29 20:21:00,71.3,56.7,29.88,NNW,329,2.0,4.0,60,0.00,,,0.00,Wunderground v.1.15,2013-08-30 03:21:00,
2013-08-29 20:22:00,71.2,56.6,29.88,NNW,329,4.0,4.0,60,0.00,,,0.00,Wunderground v.1.15,2013-08-30 03:22:00,
2013-08-29 20:23:00,71.0,56.4,29.88,NNW,329,3.0,4.0,60,0.00,,,0.00,Wunderground v.1.15,2013-08-30 03:23:00,
2013-08-29 20:25:00,70.8,56.2,29.88,NNW,329,2.0,4.0,60,0.00,,,0.00,Wunderground v.1.15,2013-08-30 03:25:00,
2013-08-29 20:26:00,70.6,57.4,29.88,NNW,329,0.0,4.0,63,0.00,,,0.00,Wunderground v.1.15,2013-08-30 03:26:00,
2013-08-29 20:27:00,70.5,57.3,29.88,NNW,329,0.0,4.0,63,0.00,,,0.00,Wunderground v.1.15,2013-08-30 03:27:00,
2013-08-29 20:28:00,70.5,58.2,29.88,NNW,329,1.0,4.0,65,0.00,,,0.00,Wunderground v.1.15,2013-08-30 03:28:00,
2013-08-29 20:30:00,70.3,57.1,29.88,NNW,329,2.0,4.0,63,0.00,,,0.00,Wunderground v.1.15,2013-08-30 03:30:00,
2013-08-29 20:31:00,70.1,57.4,29.88,NNW,329,2.0,3.0,64,0.00,,,0.00,Wunderground v.1.15,2013-08-30 03:31:00,
2013-08-29 20:33:00,69.9,58.0,29.88,NNW,329,2.0,3.0,66,0.00,,,0.00,Wunderground v.1.15,2013-08-30 03:33:00,
2013-08-29 20:34:00,69.7,57.0,29.88,NNW,329,3.0,3.0,64,0.00,,,0.00,Wunderground v.1.15,2013-08-30 03:34:00,
2013-08-29 20:35:00,69.5,57.2,29.88,NNW,329,3.0,4.0,65,0.00,,,0.00,Wunderground v.1.15,2013-08-30 03:35:00,
2013-08-29 20:36:00,69.4,57.1,29.88,NNW,329,3.0,4.0,65,0.00,,,0.00,Wunderground v.1.15,2013-08-30 03:36:00,
2013-08-29 20:38:00,69.2,56.9,29.88,NNW,329,3.0,4.0,65,0.00,,,0.00,Wunderground v.1.15,2013-08-30 03:38:00,
2013-08-29 20:39:00,69.2,56.9,29.88,NNW,329,3.0,4.0,65,0.00,,,0.00,Wunderground v.1.15,2013-08-30 03:39:00,
2013-08-29 20:40:00,69.1,56.8,29.88,NNW,329,4.0,4.0,65,0.00,,,0.00,Wunderground v.1.15,2013-08-30 03:40:00,
2013-08-29 20:41:00,69.3,57.0,29.88,NNW,332,5.0,5.0,65,0.00,,,0.00,Wunderground v.1.15,2013-08-30 03:41:00,
2013-08-29 20:43:00,69.6,56.9,29.88,NNW,336,5.0,5.0,64,0.00,,,0.00,Wunderground v.1.15,2013-08-30 03:43:00,
2013-08-29 20:44:00,69.9,57.2,29.88,NNW,338,4.0,5.0,64,0.00,,,0.00,Wunderground v.1.15,2013-08-30 03:44:00,
2013-08-29 20:45:00,70.2,56.6,29.88,NNW,338,4.0,5.0,62,0.00,,,0.00,Wunderground v.1.15,2013-08-30 03:45:00,
2013-08-29 20:46:00,70.4,55.8,29.88,NNW,338,3.0,5.0,60,0.00,,,0.00,Wunderground v.1.15,2013-08-30 03:46:00,
2013-08-29 20:48:00,70.7,56.1,29.88,NNW,338,2.0,5.0,60,0.00,,,0.00,Wunderground v.1.15,2013-08-30 03:48:00,
2013-08-29 20:49:00,70.8,56.2,29.88,NNW,338,1.0,5.0,60,0.00,,,0.00,Wunderground v.1.15,2013-08-30 03:49:00,
2013-08-29 20:50:00,70.8,57.1,29.89,NNW,338,2.0,5.0,62,0.00,,,0.00,Wunderground v.1.15,2013-08-30 03:50:00,
2013-08-29 20:51:00,71.0,59.9,29.89,NNW,338,0.0,3.0,68,0.00,,,0.00,Wunderground v.1.15,2013-08-30 03:51:00,
2013-08-29 20:53:00,70.9,58.1,29.89,NNW,338,0.0,3.0,64,0.00,,,0.00,Wunderground v.1.15,2013-08-30 03:53:00,
2013-08-29 20:54:00,70.9,59.0,29.89,NNW,338,0.0,3.0,66,0.00,,,0.00,Wunderground v.1.15,2013-08-30 03:54:00,
2013-08-29 20:55:00,70.9,57.7,29.88,NNW,338,2.0,3.0,63,0.00,,,0.00,Wunderground v.1.15,2013-08-30 03:55:00,
2013-08-29 20:56:00,70.8,58.9,29.88,NNW,338,3.0,3.0,66,0.00,,,0.00,Wunderground v.1.15,2013-08-30 03:56:00,
2013-08-29 20:57:00,70.8,59.3,29.88,NNW,338,3.0,4.0,67,0.00,,,0.00,Wunderground v.1.15,2013-08-30 03:57:00,
2013-08-29 20:58:00,70.6,58.7,29.87,NNW,338,4.0,4.0,66,0.00,,,0.00,Wunderground v.1.15,2013-08-30 03:58:00,
2013-08-29 20:59:00,70.4,58.5,29.87,NNW,338,4.0,4.0,66,0.00,,,0.00,Wunderground v.1.15,2013-08-30 03:59:00,
2013-08-29 21:01:00,70.0,58.5,29.87,NNW,338,4.0,5.0,67,0.00,,,0.00,Wunderground v.1.15,2013-08-30 04:01:00,
2013-08-29 21:06:00,69.6,57.7,29.87,NNW,339,2.0,5.0,66,0.00,,,0.00,Wunderground v.1.15,2013-08-30 04:06:00,
2013-08-29 21:07:00,69.7,58.7,29.87,NNW,339,2.0,5.0,68,0.00,,,0.00,Wunderground v.1.15,2013-08-30 04:07:00,
2013-08-29 21:11:00,70.3,58.8,29.88,NNW,339,0.0,3.0,67,0.00,,,0.00,Wunderground v.1.15,2013-08-30 04:11:00,
2013-08-29 21:12:00,70.5,57.3,29.88,NNW,338,2.0,3.0,63,0.00,,,0.00,Wunderground v.1.15,2013-08-30 04:12:00,
2013-08-29 21:16:00,71.2,56.6,29.89,NNW,338,3.0,4.0,60,0.00,,,0.00,Wunderground v.1.15,2013-08-30 04:16:00,
2013-08-29 21:18:00,71.1,58.3,29.89,NNW,338,0.0,4.0,64,0.00,,,0.00,Wunderground v.1.15,2013-08-30 04:18:00,
2013-08-29 21:21:00,70.8,58.0,29.89,NNW,338,0.0,1.0,64,0.00,,,0.00,Wunderground v.1.15,2013-08-30 04:21:00,
2013-08-29 21:22:00,70.8,58.4,29.89,NNW,338,0.0,1.0,65,0.00,,,0.00,Wunderground v.1.15,2013-08-30 04:22:00,
2013-08-29 21:23:00,70.7,58.4,29.89,NNW,338,0.0,1.0,65,0.00,,,0.00,Wunderground v.1.15,2013-08-30 04:23:00,
2013-08-29 21:26:00,70.6,58.3,29.89,NNW,338,0.0,1.0,65,0.00,,,0.00,Wunderground v.1.15,2013-08-30 04:26:00,
2013-08-29 21:27:00,70.5,58.6,29.89,NNW,338,1.0,3.0,66,0.00,,,0.00,Wunderground v.1.15,2013-08-30 04:27:00,
2013-08-29 21:28:00,70.4,58.5,29.89,NNW,338,0.0,4.0,66,0.00,,,0.00,Wunderground v.1.15,2013-08-30 04:28:00,
2013-08-29 21:31:00,70.2,58.7,29.89,NNW,338,0.0,0.0,67,0.00,,,0.00,Wunderground v.1.15,2013-08-30 04:31:00,
2013-08-29 21:32:00,70.1,58.6,29.89,NNW,338,0.0,0.0,67,0.00,,,0.00,Wunderground v.1.15,2013-08-30 04:32:00,
2013-08-29 21:33:00,70.0,58.5,29.89,NNW,338,0.0,0.0,67,0.00,,,0.00,Wunderground v.1.15,2013-08-30 04:33:00,
2013-08-29 21:36:00,69.8,59.6,29.89,NNW,330,0.0,6.0,70,0.00,,,0.00,Wunderground v.1.15,2013-08-30 04:36:00,
2013-08-29 21:37:00,69.7,59.5,29.89,NNW,330,1.0,6.0,70,0.00,,,0.00,Wunderground v.1.15,2013-08-30 04:37:00,
2013-08-29 21:38:00,69.7,59.5,29.89,NNW,330,1.0,6.0,70,0.00,,,0.00,Wunderground v.1.15,2013-08-30 04:38:00,
2013-08-29 21:41:00,69.5,60.5,29.89,NNW,329,0.0,1.0,73,0.00,,,0.00,Wunderground v.1.15,2013-08-30 04:41:00,
2013-08-29 21:43:00,69.5,61.2,29.89,NNW,329,1.0,2.0,75,0.00,,,0.00,Wunderground v.1.15,2013-08-30 04:43:00,
2013-08-29 21:46:00,69.3,61.0,29.90,NNW,329,2.0,3.0,75,0.00,,,0.00,Wunderground v.1.15,2013-08-30 04:46:00,
2013-08-29 21:47:00,69.3,61.0,29.90,NNW,329,0.0,3.0,75,0.00,,,0.00,Wunderground v.1.15,2013-08-30 04:47:00,
2013-08-29 21:48:00,69.1,60.1,29.90,NNW,329,2.0,3.0,73,0.00,,,0.00,Wunderground v.1.15,2013-08-30 04:48:00,
2013-08-29 21:51:00,68.9,60.3,29.90,NNW,329,1.0,2.0,74,0.00,,,0.00,Wunderground v.1.15,2013-08-30 04:51:00,
2013-08-29 21:52:00,68.8,59.8,29.89,NNW,329,0.0,2.0,73,0.00,,,0.00,Wunderground v.1.15,2013-08-30 04:52:00,
2013-08-29 21:53:00,68.6,59.2,29.90,NNW,329,0.0,2.0,72,0.00,,,0.00,Wunderground v.1.15,2013-08-30 04:53:00,
2013-08-29 21:54:00,68.6,59.6,29.89,NNW,329,0.0,2.0,73,0.00,,,0.00,Wunderground v.1.15,2013-08-30 04:54:00,
2013-08-29 21:56:00,68.2,59.2,29.90,NNW,329,1.0,2.0,73,0.00,,,0.00,Wunderground v.1.15,2013-08-30 04:56:00,
2013-08-29 21:57:00,68.1,59.1,29.90,NNW,329,1.0,2.0,73,0.00,,,0.00,Wunderground v.1.15,2013-08-30 04:57:00,
2013-08-29 21:58:00,67.9,58.9,29.90,NNW,329,0.0,2.0,73,0.00,,,0.00,Wunderground v.1.15,2013-08-30 04:58:00,
2013-08-29 21:59:00,67.8,58.8,29.90,NNW,329,0.0,2.0,73,0.00,,,0.00,Wunderground v.1.15,2013-08-30 04:59:00,
2013-08-29 22:01:00,67.6,58.6,29.90,NNW,329,2.0,2.0,73,0.00,,,0.00,Wunderground v.1.15,2013-08-30 05:01:00,
2013-08-29 22:02:00,67.7,59.9,29.90,NNW,329,2.0,2.0,76,0.00,,,0.00,Wunderground v.1.15,2013-08-30 05:02:00,
2013-08-29 22:03:00,67.9,61.9,29.90,NNW,329,2.0,2.0,81,0.00,,,0.00,Wunderground v.1.15,2013-08-30 05:03:00,
2013-08-29 22:04:00,67.9,61.9,29.90,NNW,329,2.0,2.0,81,0.00,,,0.00,Wunderground v.1.15,2013-08-30 05:04:00,
2013-08-29 22:06:00,68.1,63.1,29.90,NNW,329,1.0,2.0,84,0.00,,,0.00,Wunderground v.1.15,2013-08-30 05:06:00,
2013-08-29 22:07:00,68.0,62.3,29.90,NNW,329,2.0,2.0,82,0.00,,,0.00,Wunderground v.1.15,2013-08-30 05:07:00,
2013-08-29 22:08:00,67.5,60.4,29.90,NNW,329,2.0,2.0,78,0.00,,,0.00,Wunderground v.1.15,2013-08-30 05:08:00,
2013-08-29 22:09:00,67.5,60.4,29.90,NNW,329,1.0,2.0,78,0.00,,,0.00,Wunderground v.1.15,2013-08-30 05:09:00,
2013-08-29 22:11:00,67.2,59.4,29.90,NNW,329,0.0,2.0,76,0.00,,,0.00,Wunderground v.1.15,2013-08-30 05:11:00,
2013-08-29 22:12:00,67.1,59.3,29.90,NNW,329,0.0,2.0,76,0.00,,,0.00,Wunderground v.1.15,2013-08-30 05:12:00,
2013-08-29 22:14:00,67.1,59.3,29.90,NNW,329,0.0,2.0,76,0.00,,,0.00,Wunderground v.1.15,2013-08-30 05:14:00,
2013-08-29 22:16:00,67.1,59.3,29.90,NNW,329,0.0,2.0,76,0.00,,,0.00,Wunderground v.1.15,2013-08-30 05:16:00,
2013-08-29 22:17:00,67.1,59.3,29.90,NNW,329,0.0,2.0,76,0.00,,,0.00,Wunderground v.1.15,2013-08-30 05:17:00,
2013-08-29 22:19:00,67.0,59.2,29.90,NNW,329,0.0,2.0,76,0.00,,,0.00,Wunderground v.1.15,2013-08-30 05:19:00,
2013-08-29 22:20:00,66.9,59.5,29.90,NNW,329,2.0,2.0,77,0.00,,,0.00,Wunderground v.1.15,2013-08-30 05:20:00,
2013-08-29 22:21:00,66.8,59.4,29.90,NNW,329,2.0,3.0,77,0.00,,,0.00,Wunderground v.1.15,2013-08-30 05:21:00,
2013-08-29 22:22:00,66.7,59.3,29.90,NNW,329,3.0,3.0,77,0.00,,,0.00,Wunderground v.1.15,2013-08-30 05:22:00,
2013-08-29 22:24:00,66.5,59.4,29.90,NNW,329,3.0,4.0,78,0.00,,,0.00,Wunderground v.1.15,2013-08-30 05:24:00,
2013-08-29 22:25:00,66.4,59.3,29.90,NNW,329,3.0,4.0,78,0.00,,,0.00,Wunderground v.1.15,2013-08-30 05:25:00,
2013-08-29 22:26:00,66.2,58.8,29.90,NNW,329,3.0,4.0,77,0.00,,,0.00,Wunderground v.1.15,2013-08-30 05:26:00,
2013-08-29 22:27:00,66.3,59.9,29.90,NNW,329,2.0,4.0,80,0.00,,,0.00,Wunderground v.1.15,2013-08-30 05:27:00,
2013-08-29 22:29:00,66.2,57.7,29.90,NNW,329,3.0,4.0,74,0.00,,,0.00,Wunderground v.1.15,2013-08-30 05:29:00,
2013-08-29 22:30:00,66.3,57.8,29.90,NNW,329,2.0,4.0,74,0.00,,,0.00,Wunderground v.1.15,2013-08-30 05:30:00,
2013-08-29 22:31:00,66.9,61.2,29.90,NNW,329,1.0,3.0,82,0.00,,,0.00,Wunderground v.1.15,2013-08-30 05:31:00,
2013-08-29 22:32:00,67.3,61.6,29.90,NNW,329,2.0,3.0,82,0.00,,,0.00,Wunderground v.1.15,2013-08-30 05:32:00,
2013-08-29 22:35:00,67.8,61.4,29.90,NNW,329,1.0,3.0,80,0.00,,,0.00,Wunderground v.1.15,2013-08-30 05:35:00,
2013-08-29 22:36:00,67.9,62.2,29.90,NNW,329,3.0,3.0,82,0.00,,,0.00,Wunderground v.1.15,2013-08-30 05:36:00,
2013-08-29 22:37:00,68.0,61.6,29.90,NNW,329,2.0,3.0,80,0.00,,,0.00,Wunderground v.1.15,2013-08-30 05:37:00,
2013-08-29 22:40:00,68.1,62.0,29.90,NNW,329,1.0,3.0,81,0.00,,,0.00,Wunderground v.1.15,2013-08-30 05:40:00,
2013-08-29 22:41:00,68.1,62.0,29.90,NNW,329,1.0,2.0,81,0.00,,,0.00,Wunderground v.1.15,2013-08-30 05:41:00,
2013-08-29 22:42:00,67.7,61.7,29.90,NNW,329,2.0,2.0,81,0.00,,,0.00,Wunderground v.1.15,2013-08-30 05:42:00,
2013-08-29 22:45:00,67.5,56.6,29.90,NNW,329,2.0,3.0,68,0.00,,,0.00,Wunderground v.1.15,2013-08-30 05:45:00,
2013-08-29 22:46:00,67.6,57.9,29.90,NNW,329,2.0,3.0,71,0.00,,,0.00,Wunderground v.1.15,2013-08-30 05:46:00,
2013-08-29 22:47:00,67.9,59.7,29.90,NNW,329,2.0,3.0,75,0.00,,,0.00,Wunderground v.1.15,2013-08-30 05:47:00,
2013-08-29 22:51:00,68.3,58.5,29.90,NNW,329,2.0,2.0,71,0.00,,,0.00,Wunderground v.1.15,2013-08-30 05:51:00,
2013-08-29 22:52:00,68.4,57.8,29.90,NNW,329,2.0,3.0,69,0.00,,,0.00,Wunderground v.1.15,2013-08-30 05:52:00,
2013-08-29 22:56:00,68.5,58.7,29.90,NNW,329,0.0,3.0,71,0.00,,,0.00,Wunderground v.1.15,2013-08-30 05:56:00,
2013-08-29 22:57:00,68.5,58.7,29.90,NNW,329,0.0,3.0,71,0.00,,,0.00,Wunderground v.1.15,2013-08-30 05:57:00,
2013-08-29 23:01:00,68.1,57.9,29.90,NNW,329,0.0,0.0,70,0.00,,,0.00,Wunderground v.1.15,2013-08-30 06:01:00,
2013-08-29 23:02:00,68.1,57.9,29.90,NNW,329,0.0,1.0,70,0.00,,,0.00,Wunderground v.1.15,2013-08-30 06:02:00,
2013-08-29 23:06:00,68.4,60.2,29.90,NNW,329,3.0,4.0,75,0.00,,,0.00,Wunderground v.1.15,2013-08-30 06:06:00,
2013-08-29 23:07:00,68.3,60.4,29.90,NNW,329,1.0,4.0,76,0.00,,,0.00,Wunderground v.1.15,2013-08-30 06:07:00,
2013-08-29 23:11:00,68.1,59.5,29.90,NNW,329,2.0,4.0,74,0.00,,,0.00,Wunderground v.1.15,2013-08-30 06:11:00,
2013-08-29 23:12:00,68.0,59.4,29.90,NNW,329,2.0,4.0,74,0.00,,,0.00,Wunderground v.1.15,2013-08-30 06:12:00,
2013-08-29 23:16:00,67.9,58.1,29.91,NNW,329,3.0,4.0,71,0.00,,,0.00,Wunderground v.1.15,2013-08-30 06:16:00,
2013-08-29 23:17:00,67.8,58.1,29.91,NNW,329,4.0,5.0,71,0.00,,,0.00,Wunderground v.1.15,2013-08-30 06:17:00,
2013-08-29 23:21:00,67.9,60.4,29.91,NNW,329,2.0,3.0,77,0.00,,,0.00,Wunderground v.1.15,2013-08-30 06:21:00,
2013-08-29 23:22:00,67.9,60.8,29.91,NNW,329,3.0,3.0,78,0.00,,,0.00,Wunderground v.1.15,2013-08-30 06:22:00,
2013-08-29 23:23:00,67.9,61.1,29.91,NNW,329,3.0,4.0,79,0.00,,,0.00,Wunderground v.1.15,2013-08-30 06:23:00,
2013-08-29 23:26:00,66.7,58.1,29.91,NNW,329,3.0,4.0,74,0.00,,,0.00,Wunderground v.1.15,2013-08-30 06:26:00,
2013-08-29 23:27:00,66.8,60.8,29.91,NNW,329,2.0,4.0,81,0.00,,,0.00,Wunderground v.1.15,2013-08-30 06:27:00,
2013-08-29 23:28:00,66.8,60.8,29.91,NNW,329,2.0,4.0,81,0.00,,,0.00,Wunderground v.1.15,2013-08-30 06:28:00,
2013-08-29 23:29:00,66.7,60.7,29.91,NNW,329,3.0,4.0,81,0.00,,,0.00,Wunderground v.1.15,2013-08-30 06:29:00,
2013-08-29 23:31:00,66.6,59.9,29.91,WNW,297,8.0,8.0,79,0.00,,,0.00,Wunderground v.1.15,2013-08-30 06:31:00,
2013-08-29 23:32:00,66.4,59.0,29.91,WNW,292,6.0,9.0,77,0.00,,,0.00,Wunderground v.1.15,2013-08-30 06:32:00,
2013-08-29 23:33:00,66.4,58.6,29.91,WNW,292,7.0,9.0,76,0.00,,,0.00,Wunderground v.1.15,2013-08-30 06:33:00,
2013-08-29 23:34:00,66.3,58.5,29.91,WNW,292,3.0,9.0,76,0.00,,,0.00,Wunderground v.1.15,2013-08-30 06:34:00,
2013-08-29 23:36:00,66.2,59.1,29.91,WNW,292,3.0,9.0,78,0.00,,,0.00,Wunderground v.1.15,2013-08-30 06:36:00,
2013-08-29 23:37:00,66.0,58.6,29.91,WNW,292,3.0,9.0,77,0.00,,,0.00,Wunderground v.1.15,2013-08-30 06:37:00,
2013-08-29 23:38:00,66.0,58.6,29.91,WNW,292,3.0,9.0,77,0.00,,,0.00,Wunderground v.1.15,2013-08-30 06:38:00,
2013-08-29 23:39:00,65.9,58.8,29.91,WNW,292,1.0,9.0,78,0.00,,,0.00,Wunderground v.1.15,2013-08-30 06:39:00,
2013-08-29 23:41:00,65.9,59.6,29.91,WNW,292,1.0,4.0,80,0.00,,,0.00,Wunderground v.1.15,2013-08-30 06:41:00,
2013-08-29 23:42:00,65.9,59.9,29.91,WNW,292,2.0,4.0,81,0.00,,,0.00,Wunderground v.1.15,2013-08-30 06:42:00,
2013-08-29 23:43:00,65.8,59.1,29.91,WNW,292,1.0,4.0,79,0.00,,,0.00,Wunderground v.1.15,2013-08-30 06:43:00,
2013-08-29 23:45:00,65.4,58.0,29.91,WNW,292,2.0,4.0,77,0.00,,,0.00,Wunderground v.1.15,2013-08-30 06:45:00,
2013-08-29 23:46:00,65.3,58.3,29.91,WNW,292,2.0,4.0,78,0.00,,,0.00,Wunderground v.1.15,2013-08-30 06:46:00,
2013-08-29 23:47:00,65.2,58.5,29.91,WNW,292,3.0,4.0,79,0.00,,,0.00,Wunderground v.1.15,2013-08-30 06:47:00,
2013-08-29 23:48:00,65.1,58.4,29.91,WNW,292,2.0,4.0,79,0.00,,,0.00,Wunderground v.1.15,2013-08-30 06:48:00,
2013-08-29 23:51:00,64.5,57.5,29.91,WNW,292,3.0,4.0,78,0.00,,,0.00,Wunderground v.1.15,2013-08-30 06:51:00,
2013-08-29 23:53:00,64.3,57.6,29.92,WNW,292,3.0,4.0,79,0.00,,,0.00,Wunderground v.1.15,2013-08-30 06:53:00,
2013-08-29 23:55:00,64.1,57.5,29.91,WNW,292,3.0,4.0,79,0.00,,,0.00,Wunderground v.1.15,2013-08-30 06:55:00,
2013-08-29 23:56:00,64.0,57.4,29.91,WNW,292,2.0,4.0,79,0.00,,,0.00,Wunderground v.1.15,2013-08-30 06:56:00,
2013-08-29 23:58:00,64.0,57.0,29.91,WNW,292,4.0,4.0,78,0.00,,,0.00,Wunderground v.1.15,2013-08-30 06:58:00,
2013-08-29 23:59:00,63.9,56.5,29.91,WNW,292,4.0,4.0,77,0.00,,,0.00,Wunderground v.1.15,2013-08-30 06:59:00,